<?xml version="1.0" encoding="UTF-8" standalone="no" ?>
<gpx xmlns="http://www.topografix.com/GPX/1/1" creator="CompeGPS" version="1.1" xmlns:xsi="http://www.w3.org/2001/XMLSchema-instance" xsi:schemaLocation="http://www.topografix.com/GPX/1/1 http://www.topografix.com/GPX/1/1/gpx.xsd http://www.garmin.com/xmlschemas/GpxExtensions/v3 http://www.garmin.com/xmlschemas/GpxExtensionsv3.xsd http://www.garmin.com/xmlschemas/TrackPointExtension/v1 http://www.garmin.com/xmlschemas/TrackPointExtensionv1.xsd" xmlns:gpxtpx="http://www.garmin.com/xmlschemas/TrackPointExtension/v1">
  <metadata>
    <link href="http://www.compegps.com">
      <text>CompeGPS TEAM, SL</text>
    </link>
    <time>2018-11-04T10:57:52Z</time>
    <bounds maxlat="42.902286" maxlon="0.777520" minlat="42.887218" minlon="0.722976"/>
  </metadata>
<wpt lat="42.890900" lon="0.729108">
<ele>900</ele>
<name>Argut Dessus</name>
</wpt>
<wpt lat="42.891948" lon="0.734812">
<ele>1070</ele>
<name>Fontaine Rouge</name>
</wpt>
<wpt lat="42.887218" lon="0.753435">
<ele>1350</ele>
<name>Cabane de Artigue</name>
</wpt>
<wpt lat="42.894169" lon="0.765691">
<ele>1390</ele>
<name>Ruisseau Goute Artignon</name>
</wpt>
<wpt lat="42.887705" lon="0.777127">
<ele>1386</ele>
<name>Col Artigaux</name>
</wpt>
<wpt lat="42.894904" lon="0.777369">
<ele>1790</ele>
<name>Mont Sijol</name>
</wpt>
<wpt lat="42.901980" lon="0.765847">
<ele>1816</ele>
<name>Tuc de Etang</name>
</wpt>
<wpt  lat="42.898341" lon="0.754698">
<ele>1734</ele>
<name>Tuc de Pan</name>
</wpt>
<wpt lat="42.901219" lon="0.723061">
<ele>1220</ele>
<name>Route forestiere</name>
</wpt>
<trk>
    <name>tuc-de-l-etang</name>
    <userMyTwoNav></userMyTwoNav>
    <serialNumber></serialNumber>
    <trkseg>
      <trkpt lat="42.890900" lon="0.729108">
        <ele>909.9</ele>
        <time>2018-11-03T10:00:40Z</time>
        <name>Argut Dessus</name>
      </trkpt>
      <trkpt lat="42.890985" lon="0.729209">
        <ele>911.3</ele>
        <time>2018-11-03T10:01:25Z</time>
      </trkpt>
      <trkpt lat="42.890997" lon="0.729342">
        <ele>911.9</ele>
        <time>2018-11-03T10:01:36Z</time>
      </trkpt>
      <trkpt lat="42.891024" lon="0.729464">
        <ele>913.1</ele>
        <time>2018-11-03T10:01:46Z</time>
      </trkpt>
      <trkpt lat="42.891105" lon="0.729579">
        <ele>914.4</ele>
        <time>2018-11-03T10:01:58Z</time>
      </trkpt>
      <trkpt lat="42.891155" lon="0.729729">
        <ele>916.2</ele>
        <time>2018-11-03T10:02:10Z</time>
      </trkpt>
      <trkpt lat="42.891273" lon="0.729757">
        <ele>918.3</ele>
        <time>2018-11-03T10:02:22Z</time>
      </trkpt>
      <trkpt lat="42.891360" lon="0.729713">
        <ele>919.6</ele>
        <time>2018-11-03T10:02:33Z</time>
      </trkpt>
      <trkpt lat="42.891459" lon="0.729630">
        <ele>920.0</ele>
        <time>2018-11-03T10:02:43Z</time>
      </trkpt>
      <trkpt lat="42.891580" lon="0.729636">
        <ele>922.7</ele>
        <time>2018-11-03T10:02:59Z</time>
      </trkpt>
      <trkpt lat="42.891686" lon="0.729579">
        <ele>924.9</ele>
        <time>2018-11-03T10:03:13Z</time>
      </trkpt>
      <trkpt lat="42.891787" lon="0.729561">
        <ele>926.9</ele>
        <time>2018-11-03T10:03:24Z</time>
      </trkpt>
      <trkpt lat="42.891899" lon="0.729539">
        <ele>929.7</ele>
        <time>2018-11-03T10:03:37Z</time>
      </trkpt>
      <trkpt lat="42.892013" lon="0.729517">
        <ele>931.9</ele>
        <time>2018-11-03T10:03:50Z</time>
      </trkpt>
      <trkpt lat="42.892075" lon="0.729633">
        <ele>934.4</ele>
        <time>2018-11-03T10:04:05Z</time>
      </trkpt>
      <trkpt lat="42.892007" lon="0.729757">
        <ele>936.6</ele>
        <time>2018-11-03T10:04:18Z</time>
      </trkpt>
      <trkpt lat="42.891935" lon="0.729847">
        <ele>937.5</ele>
        <time>2018-11-03T10:04:27Z</time>
      </trkpt>
      <trkpt lat="42.891876" lon="0.729953">
        <ele>938.9</ele>
        <time>2018-11-03T10:04:38Z</time>
      </trkpt>
      <trkpt lat="42.891812" lon="0.730053">
        <ele>940.4</ele>
        <time>2018-11-03T10:04:50Z</time>
      </trkpt>
      <trkpt lat="42.891775" lon="0.730203">
        <ele>942.6</ele>
        <time>2018-11-03T10:05:05Z</time>
      </trkpt>
      <trkpt lat="42.891755" lon="0.730355">
        <ele>944.4</ele>
        <time>2018-11-03T10:05:18Z</time>
      </trkpt>
      <trkpt lat="42.891709" lon="0.730474">
        <ele>946.0</ele>
        <time>2018-11-03T10:05:30Z</time>
      </trkpt>
      <trkpt lat="42.891626" lon="0.730606">
        <ele>948.9</ele>
        <time>2018-11-03T10:05:47Z</time>
      </trkpt>
      <trkpt lat="42.891534" lon="0.730733">
        <ele>950.5</ele>
        <time>2018-11-03T10:05:59Z</time>
      </trkpt>
      <trkpt lat="42.891465" lon="0.730840">
        <ele>951.7</ele>
        <time>2018-11-03T10:06:10Z</time>
      </trkpt>
      <trkpt lat="42.891390" lon="0.730956">
        <ele>953.7</ele>
        <time>2018-11-03T10:06:23Z</time>
      </trkpt>
      <trkpt lat="42.891300" lon="0.731041">
        <ele>956.1</ele>
        <time>2018-11-03T10:06:40Z</time>
      </trkpt>
      <trkpt lat="42.891272" lon="0.731176">
        <ele>959.9</ele>
        <time>2018-11-03T10:07:17Z</time>
      </trkpt>
      <trkpt lat="42.891283" lon="0.731236">
        <ele>959.8</ele>
        <time>2018-11-03T10:07:43Z</time>
      </trkpt>
      <trkpt lat="42.891345" lon="0.731155">
        <ele>962.2</ele>
        <time>2018-11-03T10:08:01Z</time>
      </trkpt>
      <trkpt lat="42.891467" lon="0.731122">
        <ele>964.9</ele>
        <time>2018-11-03T10:08:22Z</time>
      </trkpt>
      <trkpt lat="42.891571" lon="0.731076">
        <ele>968.0</ele>
        <time>2018-11-03T10:08:41Z</time>
      </trkpt>
      <trkpt lat="42.891669" lon="0.730994">
        <ele>970.9</ele>
        <time>2018-11-03T10:09:01Z</time>
      </trkpt>
      <trkpt lat="42.891745" lon="0.730901">
        <ele>973.2</ele>
        <time>2018-11-03T10:09:35Z</time>
      </trkpt>
      <trkpt lat="42.891832" lon="0.730815">
        <ele>975.2</ele>
        <time>2018-11-03T10:09:53Z</time>
      </trkpt>
      <trkpt lat="42.891923" lon="0.730802">
        <ele>978.5</ele>
        <time>2018-11-03T10:10:12Z</time>
      </trkpt>
      <trkpt lat="42.892037" lon="0.730761">
        <ele>981.6</ele>
        <time>2018-11-03T10:10:31Z</time>
      </trkpt>
      <trkpt lat="42.892130" lon="0.730763">
        <ele>984.2</ele>
        <time>2018-11-03T10:10:46Z</time>
      </trkpt>
      <trkpt lat="42.892131" lon="0.730898">
        <ele>987.7</ele>
        <time>2018-11-03T10:11:05Z</time>
      </trkpt>
      <trkpt lat="42.892079" lon="0.730995">
        <ele>990.8</ele>
        <time>2018-11-03T10:11:35Z</time>
      </trkpt>
      <trkpt lat="42.892096" lon="0.730966">
        <ele>990.8</ele>
        <time>2018-11-03T10:12:29Z</time>
      </trkpt>
      <trkpt lat="42.892087" lon="0.730996">
        <ele>991.2</ele>
        <time>2018-11-03T10:13:12Z</time>
      </trkpt>
      <trkpt lat="42.892078" lon="0.731002">
        <ele>991.3</ele>
        <time>2018-11-03T10:13:56Z</time>
      </trkpt>
      <trkpt lat="42.892013" lon="0.731118">
        <ele>993.5</ele>
        <time>2018-11-03T10:14:10Z</time>
      </trkpt>
      <trkpt lat="42.891948" lon="0.731239">
        <ele>996.2</ele>
        <time>2018-11-03T10:14:25Z</time>
      </trkpt>
      <trkpt lat="42.891903" lon="0.731359">
        <ele>998.4</ele>
        <time>2018-11-03T10:14:39Z</time>
      </trkpt>
      <trkpt lat="42.891869" lon="0.731498">
        <ele>1000.9</ele>
        <time>2018-11-03T10:14:53Z</time>
      </trkpt>
      <trkpt lat="42.891830" lon="0.731617">
        <ele>1003.4</ele>
        <time>2018-11-03T10:15:08Z</time>
      </trkpt>
      <trkpt lat="42.891809" lon="0.731760">
        <ele>1006.6</ele>
        <time>2018-11-03T10:15:26Z</time>
      </trkpt>
      <trkpt lat="42.891786" lon="0.731890">
        <ele>1009.4</ele>
        <time>2018-11-03T10:15:44Z</time>
      </trkpt>
      <trkpt lat="42.891755" lon="0.732047">
        <ele>1012.1</ele>
        <time>2018-11-03T10:16:01Z</time>
      </trkpt>
      <trkpt lat="42.891733" lon="0.732181">
        <ele>1014.7</ele>
        <time>2018-11-03T10:16:16Z</time>
      </trkpt>
      <trkpt lat="42.891698" lon="0.732339">
        <ele>1017.3</ele>
        <time>2018-11-03T10:16:33Z</time>
      </trkpt>
      <trkpt lat="42.891670" lon="0.732490">
        <ele>1019.0</ele>
        <time>2018-11-03T10:16:44Z</time>
      </trkpt>
      <trkpt lat="42.891647" lon="0.732619">
        <ele>1021.0</ele>
        <time>2018-11-03T10:16:57Z</time>
      </trkpt>
      <trkpt lat="42.891629" lon="0.732754">
        <ele>1022.8</ele>
        <time>2018-11-03T10:17:09Z</time>
      </trkpt>
      <trkpt lat="42.891607" lon="0.732888">
        <ele>1024.8</ele>
        <time>2018-11-03T10:17:23Z</time>
      </trkpt>
      <trkpt lat="42.891599" lon="0.733032">
        <ele>1027.2</ele>
        <time>2018-11-03T10:17:36Z</time>
      </trkpt>
      <trkpt lat="42.891608" lon="0.733147">
        <ele>1029.5</ele>
        <time>2018-11-03T10:17:51Z</time>
      </trkpt>
      <trkpt lat="42.891612" lon="0.733281">
        <ele>1032.3</ele>
        <time>2018-11-03T10:18:07Z</time>
      </trkpt>
      <trkpt lat="42.891608" lon="0.733426">
        <ele>1034.5</ele>
        <time>2018-11-03T10:18:20Z</time>
      </trkpt>
      <trkpt lat="42.891627" lon="0.733550">
        <ele>1036.8</ele>
        <time>2018-11-03T10:18:34Z</time>
      </trkpt>
      <trkpt lat="42.891639" lon="0.733680">
        <ele>1040.1</ele>
        <time>2018-11-03T10:18:50Z</time>
      </trkpt>
      <trkpt lat="42.891674" lon="0.733809">
        <ele>1043.3</ele>
        <time>2018-11-03T10:19:07Z</time>
      </trkpt>
      <trkpt lat="42.891691" lon="0.733955">
        <ele>1046.2</ele>
        <time>2018-11-03T10:19:21Z</time>
      </trkpt>
      <trkpt lat="42.891710" lon="0.734078">
        <ele>1048.3</ele>
        <time>2018-11-03T10:19:34Z</time>
      </trkpt>
      <trkpt lat="42.891743" lon="0.734186">
        <ele>1050.9</ele>
        <time>2018-11-03T10:19:48Z</time>
      </trkpt>
      <trkpt lat="42.891768" lon="0.734322">
        <ele>1052.9</ele>
        <time>2018-11-03T10:20:01Z</time>
      </trkpt>
      <trkpt lat="42.891804" lon="0.734442">
        <ele>1054.5</ele>
        <time>2018-11-03T10:20:13Z</time>
      </trkpt>
      <trkpt lat="42.891854" lon="0.734557">
        <ele>1056.4</ele>
        <time>2018-11-03T10:20:25Z</time>
      </trkpt>
      <trkpt lat="42.891892" lon="0.734682">
        <ele>1057.9</ele>
        <time>2018-11-03T10:20:38Z</time>
      </trkpt>
      <trkpt lat="42.891948" lon="0.734812">
        <ele>1059.9</ele>
        <time>2018-11-03T10:20:52Z</time>
        <name>Fontaine Rouge</name>
      </trkpt>
      <trkpt lat="42.891944" lon="0.734941">
        <ele>1062.0</ele>
        <time>2018-11-03T10:21:05Z</time>
      </trkpt>
      <trkpt lat="42.891936" lon="0.735083">
        <ele>1063.9</ele>
        <time>2018-11-03T10:21:17Z</time>
      </trkpt>
      <trkpt lat="42.891949" lon="0.735209">
        <ele>1065.7</ele>
        <time>2018-11-03T10:21:31Z</time>
      </trkpt>
      <trkpt lat="42.891978" lon="0.735335">
        <ele>1066.2</ele>
        <time>2018-11-03T10:21:45Z</time>
      </trkpt>
      <trkpt lat="42.891996" lon="0.735457">
        <ele>1066.5</ele>
        <time>2018-11-03T10:21:55Z</time>
      </trkpt>
      <trkpt lat="42.892002" lon="0.735607">
        <ele>1067.1</ele>
        <time>2018-11-03T10:22:06Z</time>
      </trkpt>
      <trkpt lat="42.892005" lon="0.735749">
        <ele>1067.6</ele>
        <time>2018-11-03T10:22:17Z</time>
      </trkpt>
      <trkpt lat="42.891990" lon="0.735865">
        <ele>1068.2</ele>
        <time>2018-11-03T10:22:31Z</time>
      </trkpt>
      <trkpt lat="42.892005" lon="0.735995">
        <ele>1068.7</ele>
        <time>2018-11-03T10:22:50Z</time>
      </trkpt>
      <trkpt lat="42.892019" lon="0.736112">
        <ele>1069.6</ele>
        <time>2018-11-03T10:23:00Z</time>
      </trkpt>
      <trkpt lat="42.892038" lon="0.736257">
        <ele>1071.2</ele>
        <time>2018-11-03T10:23:13Z</time>
      </trkpt>
      <trkpt lat="42.892079" lon="0.736383">
        <ele>1073.2</ele>
        <time>2018-11-03T10:23:24Z</time>
      </trkpt>
      <trkpt lat="42.892104" lon="0.736523">
        <ele>1075.1</ele>
        <time>2018-11-03T10:23:35Z</time>
      </trkpt>
      <trkpt lat="42.892152" lon="0.736648">
        <ele>1077.2</ele>
        <time>2018-11-03T10:23:48Z</time>
      </trkpt>
      <trkpt lat="42.892192" lon="0.736770">
        <ele>1078.6</ele>
        <time>2018-11-03T10:23:58Z</time>
      </trkpt>
      <trkpt lat="42.892214" lon="0.736919">
        <ele>1079.4</ele>
        <time>2018-11-03T10:24:09Z</time>
      </trkpt>
      <trkpt lat="42.892175" lon="0.737061">
        <ele>1079.4</ele>
        <time>2018-11-03T10:24:18Z</time>
      </trkpt>
      <trkpt lat="42.892139" lon="0.737193">
        <ele>1079.3</ele>
        <time>2018-11-03T10:24:28Z</time>
      </trkpt>
      <trkpt lat="42.892111" lon="0.737322">
        <ele>1079.0</ele>
        <time>2018-11-03T10:24:37Z</time>
      </trkpt>
      <trkpt lat="42.892085" lon="0.737476">
        <ele>1079.3</ele>
        <time>2018-11-03T10:24:48Z</time>
      </trkpt>
      <trkpt lat="42.892089" lon="0.737611">
        <ele>1079.1</ele>
        <time>2018-11-03T10:24:58Z</time>
      </trkpt>
      <trkpt lat="42.892080" lon="0.737761">
        <ele>1078.8</ele>
        <time>2018-11-03T10:25:08Z</time>
      </trkpt>
      <trkpt lat="42.892015" lon="0.737863">
        <ele>1078.9</ele>
        <time>2018-11-03T10:25:18Z</time>
      </trkpt>
      <trkpt lat="42.891949" lon="0.737988">
        <ele>1079.0</ele>
        <time>2018-11-03T10:25:28Z</time>
      </trkpt>
      <trkpt lat="42.891903" lon="0.738108">
        <ele>1079.0</ele>
        <time>2018-11-03T10:25:37Z</time>
      </trkpt>
      <trkpt lat="42.891859" lon="0.738225">
        <ele>1079.3</ele>
        <time>2018-11-03T10:25:46Z</time>
      </trkpt>
      <trkpt lat="42.891862" lon="0.738363">
        <ele>1079.1</ele>
        <time>2018-11-03T10:25:56Z</time>
      </trkpt>
      <trkpt lat="42.891893" lon="0.738518">
        <ele>1079.5</ele>
        <time>2018-11-03T10:26:06Z</time>
      </trkpt>
      <trkpt lat="42.891914" lon="0.738665">
        <ele>1080.4</ele>
        <time>2018-11-03T10:26:17Z</time>
      </trkpt>
      <trkpt lat="42.891924" lon="0.738821">
        <ele>1081.5</ele>
        <time>2018-11-03T10:26:27Z</time>
      </trkpt>
      <trkpt lat="42.891922" lon="0.739003">
        <ele>1081.7</ele>
        <time>2018-11-03T10:26:39Z</time>
      </trkpt>
      <trkpt lat="42.891930" lon="0.739158">
        <ele>1081.7</ele>
        <time>2018-11-03T10:26:49Z</time>
      </trkpt>
      <trkpt lat="42.891939" lon="0.739303">
        <ele>1081.8</ele>
        <time>2018-11-03T10:26:58Z</time>
      </trkpt>
      <trkpt lat="42.891947" lon="0.739434">
        <ele>1082.2</ele>
        <time>2018-11-03T10:27:08Z</time>
      </trkpt>
      <trkpt lat="42.891952" lon="0.739575">
        <ele>1082.9</ele>
        <time>2018-11-03T10:27:17Z</time>
      </trkpt>
      <trkpt lat="42.891985" lon="0.739712">
        <ele>1083.8</ele>
        <time>2018-11-03T10:27:27Z</time>
      </trkpt>
      <trkpt lat="42.892046" lon="0.739820">
        <ele>1084.3</ele>
        <time>2018-11-03T10:27:36Z</time>
      </trkpt>
      <trkpt lat="42.892112" lon="0.739902">
        <ele>1085.2</ele>
        <time>2018-11-03T10:27:46Z</time>
      </trkpt>
      <trkpt lat="42.892193" lon="0.740026">
        <ele>1086.8</ele>
        <time>2018-11-03T10:28:01Z</time>
      </trkpt>
      <trkpt lat="42.892280" lon="0.740126">
        <ele>1088.2</ele>
        <time>2018-11-03T10:28:11Z</time>
      </trkpt>
      <trkpt lat="42.892357" lon="0.740244">
        <ele>1089.8</ele>
        <time>2018-11-03T10:28:25Z</time>
      </trkpt>
      <trkpt lat="42.892433" lon="0.740367">
        <ele>1091.3</ele>
        <time>2018-11-03T10:28:37Z</time>
      </trkpt>
      <trkpt lat="42.892500" lon="0.740519">
        <ele>1092.3</ele>
        <time>2018-11-03T10:28:50Z</time>
      </trkpt>
      <trkpt lat="42.892564" lon="0.740655">
        <ele>1093.6</ele>
        <time>2018-11-03T10:29:02Z</time>
      </trkpt>
      <trkpt lat="42.892647" lon="0.740787">
        <ele>1095.6</ele>
        <time>2018-11-03T10:29:18Z</time>
      </trkpt>
      <trkpt lat="42.892748" lon="0.740883">
        <ele>1097.9</ele>
        <time>2018-11-03T10:29:36Z</time>
      </trkpt>
      <trkpt lat="42.892817" lon="0.740955">
        <ele>1099.3</ele>
        <time>2018-11-03T10:29:55Z</time>
      </trkpt>
      <trkpt lat="42.892858" lon="0.741022">
        <ele>1100.9</ele>
        <time>2018-11-03T10:30:10Z</time>
      </trkpt>
      <trkpt lat="42.892844" lon="0.741156">
        <ele>1104.0</ele>
        <time>2018-11-03T10:30:34Z</time>
      </trkpt>
      <trkpt lat="42.892798" lon="0.741247">
        <ele>1105.1</ele>
        <time>2018-11-03T10:30:50Z</time>
      </trkpt>
      <trkpt lat="42.892738" lon="0.741290">
        <ele>1109.0</ele>
        <time>2018-11-03T10:31:16Z</time>
      </trkpt>
      <trkpt lat="42.892665" lon="0.741373">
        <ele>1111.8</ele>
        <time>2018-11-03T10:31:35Z</time>
      </trkpt>
      <trkpt lat="42.892592" lon="0.741448">
        <ele>1114.1</ele>
        <time>2018-11-03T10:31:53Z</time>
      </trkpt>
      <trkpt lat="42.892547" lon="0.741513">
        <ele>1117.3</ele>
        <time>2018-11-03T10:32:14Z</time>
      </trkpt>
      <trkpt lat="42.892431" lon="0.741656">
        <ele>1120.2</ele>
        <time>2018-11-03T10:32:34Z</time>
      </trkpt>
      <trkpt lat="42.892349" lon="0.741772">
        <ele>1122.9</ele>
        <time>2018-11-03T10:32:53Z</time>
      </trkpt>
      <trkpt lat="42.892272" lon="0.741881">
        <ele>1125.5</ele>
        <time>2018-11-03T10:33:14Z</time>
      </trkpt>
      <trkpt lat="42.892223" lon="0.742020">
        <ele>1126.8</ele>
        <time>2018-11-03T10:33:28Z</time>
      </trkpt>
      <trkpt lat="42.892187" lon="0.742162">
        <ele>1128.7</ele>
        <time>2018-11-03T10:33:41Z</time>
      </trkpt>
      <trkpt lat="42.892176" lon="0.742302">
        <ele>1130.3</ele>
        <time>2018-11-03T10:33:53Z</time>
      </trkpt>
      <trkpt lat="42.892189" lon="0.742446">
        <ele>1131.8</ele>
        <time>2018-11-03T10:34:06Z</time>
      </trkpt>
      <trkpt lat="42.892220" lon="0.742605">
        <ele>1133.4</ele>
        <time>2018-11-03T10:34:20Z</time>
      </trkpt>
      <trkpt lat="42.892234" lon="0.742759">
        <ele>1134.8</ele>
        <time>2018-11-03T10:34:37Z</time>
      </trkpt>
      <trkpt lat="42.892234" lon="0.742941">
        <ele>1136.6</ele>
        <time>2018-11-03T10:34:52Z</time>
      </trkpt>
      <trkpt lat="42.892228" lon="0.743062">
        <ele>1138.7</ele>
        <time>2018-11-03T10:35:05Z</time>
      </trkpt>
      <trkpt lat="42.892262" lon="0.743226">
        <ele>1141.0</ele>
        <time>2018-11-03T10:35:20Z</time>
      </trkpt>
      <trkpt lat="42.892307" lon="0.743386">
        <ele>1143.3</ele>
        <time>2018-11-03T10:35:36Z</time>
      </trkpt>
      <trkpt lat="42.892297" lon="0.743499">
        <ele>1145.3</ele>
        <time>2018-11-03T10:35:50Z</time>
      </trkpt>
      <trkpt lat="42.892291" lon="0.743625">
        <ele>1147.7</ele>
        <time>2018-11-03T10:36:04Z</time>
      </trkpt>
      <trkpt lat="42.892275" lon="0.743803">
        <ele>1150.4</ele>
        <time>2018-11-03T10:36:21Z</time>
      </trkpt>
      <trkpt lat="42.892243" lon="0.743951">
        <ele>1152.6</ele>
        <time>2018-11-03T10:36:33Z</time>
      </trkpt>
      <trkpt lat="42.892239" lon="0.744078">
        <ele>1155.2</ele>
        <time>2018-11-03T10:36:47Z</time>
      </trkpt>
      <trkpt lat="42.892220" lon="0.744206">
        <ele>1157.4</ele>
        <time>2018-11-03T10:37:01Z</time>
      </trkpt>
      <trkpt lat="42.892245" lon="0.744320">
        <ele>1159.3</ele>
        <time>2018-11-03T10:37:13Z</time>
      </trkpt>
      <trkpt lat="42.892242" lon="0.744487">
        <ele>1161.8</ele>
        <time>2018-11-03T10:37:29Z</time>
      </trkpt>
      <trkpt lat="42.892271" lon="0.744632">
        <ele>1163.5</ele>
        <time>2018-11-03T10:37:43Z</time>
      </trkpt>
      <trkpt lat="42.892329" lon="0.744790">
        <ele>1166.1</ele>
        <time>2018-11-03T10:38:02Z</time>
      </trkpt>
      <trkpt lat="42.892368" lon="0.744924">
        <ele>1167.5</ele>
        <time>2018-11-03T10:38:15Z</time>
      </trkpt>
      <trkpt lat="42.892402" lon="0.745068">
        <ele>1168.9</ele>
        <time>2018-11-03T10:38:27Z</time>
      </trkpt>
      <trkpt lat="42.892438" lon="0.745208">
        <ele>1169.7</ele>
        <time>2018-11-03T10:38:38Z</time>
      </trkpt>
      <trkpt lat="42.892440" lon="0.745313">
        <ele>1171.2</ele>
        <time>2018-11-03T10:38:51Z</time>
      </trkpt>
      <trkpt lat="42.892481" lon="0.745465">
        <ele>1173.8</ele>
        <time>2018-11-03T10:39:07Z</time>
      </trkpt>
      <trkpt lat="42.892544" lon="0.745615">
        <ele>1176.1</ele>
        <time>2018-11-03T10:39:23Z</time>
      </trkpt>
      <trkpt lat="42.892603" lon="0.745754">
        <ele>1177.4</ele>
        <time>2018-11-03T10:39:33Z</time>
      </trkpt>
      <trkpt lat="42.892549" lon="0.745854">
        <ele>1178.4</ele>
        <time>2018-11-03T10:39:42Z</time>
      </trkpt>
      <trkpt lat="42.892552" lon="0.745990">
        <ele>1179.1</ele>
        <time>2018-11-03T10:39:52Z</time>
      </trkpt>
      <trkpt lat="42.892597" lon="0.746112">
        <ele>1180.0</ele>
        <time>2018-11-03T10:40:03Z</time>
      </trkpt>
      <trkpt lat="42.892618" lon="0.746243">
        <ele>1181.3</ele>
        <time>2018-11-03T10:40:16Z</time>
      </trkpt>
      <trkpt lat="42.892498" lon="0.746336">
        <ele>1183.3</ele>
        <time>2018-11-03T10:40:31Z</time>
      </trkpt>
      <trkpt lat="42.892380" lon="0.746400">
        <ele>1183.9</ele>
        <time>2018-11-03T10:40:42Z</time>
      </trkpt>
      <trkpt lat="42.892273" lon="0.746458">
        <ele>1185.0</ele>
        <time>2018-11-03T10:40:53Z</time>
      </trkpt>
      <trkpt lat="42.892184" lon="0.746511">
        <ele>1185.5</ele>
        <time>2018-11-03T10:41:03Z</time>
      </trkpt>
      <trkpt lat="42.892089" lon="0.746606">
        <ele>1187.8</ele>
        <time>2018-11-03T10:41:17Z</time>
      </trkpt>
      <trkpt lat="42.891996" lon="0.746618">
        <ele>1190.3</ele>
        <time>2018-11-03T10:41:34Z</time>
      </trkpt>
      <trkpt lat="42.891872" lon="0.746545">
        <ele>1192.6</ele>
        <time>2018-11-03T10:41:49Z</time>
      </trkpt>
      <trkpt lat="42.891749" lon="0.746502">
        <ele>1194.0</ele>
        <time>2018-11-03T10:42:00Z</time>
      </trkpt>
      <trkpt lat="42.891639" lon="0.746522">
        <ele>1195.6</ele>
        <time>2018-11-03T10:42:12Z</time>
      </trkpt>
      <trkpt lat="42.891544" lon="0.746551">
        <ele>1197.6</ele>
        <time>2018-11-03T10:42:24Z</time>
      </trkpt>
      <trkpt lat="42.891452" lon="0.746629">
        <ele>1199.3</ele>
        <time>2018-11-03T10:42:37Z</time>
      </trkpt>
      <trkpt lat="42.891336" lon="0.746716">
        <ele>1199.9</ele>
        <time>2018-11-03T10:42:49Z</time>
      </trkpt>
      <trkpt lat="42.891237" lon="0.746759">
        <ele>1200.7</ele>
        <time>2018-11-03T10:43:00Z</time>
      </trkpt>
      <trkpt lat="42.891154" lon="0.746831">
        <ele>1202.1</ele>
        <time>2018-11-03T10:43:12Z</time>
      </trkpt>
      <trkpt lat="42.891079" lon="0.746928">
        <ele>1203.9</ele>
        <time>2018-11-03T10:43:25Z</time>
      </trkpt>
      <trkpt lat="42.891025" lon="0.747037">
        <ele>1205.4</ele>
        <time>2018-11-03T10:43:40Z</time>
      </trkpt>
      <trkpt lat="42.890914" lon="0.747074">
        <ele>1207.2</ele>
        <time>2018-11-03T10:43:55Z</time>
      </trkpt>
      <trkpt lat="42.890833" lon="0.747134">
        <ele>1209.1</ele>
        <time>2018-11-03T10:44:07Z</time>
      </trkpt>
      <trkpt lat="42.890748" lon="0.747191">
        <ele>1211.3</ele>
        <time>2018-11-03T10:44:21Z</time>
      </trkpt>
      <trkpt lat="42.890659" lon="0.747284">
        <ele>1213.6</ele>
        <time>2018-11-03T10:44:35Z</time>
      </trkpt>
      <trkpt lat="42.890554" lon="0.747347">
        <ele>1215.6</ele>
        <time>2018-11-03T10:44:49Z</time>
      </trkpt>
      <trkpt lat="42.890442" lon="0.747370">
        <ele>1218.4</ele>
        <time>2018-11-03T10:45:03Z</time>
      </trkpt>
      <trkpt lat="42.890349" lon="0.747319">
        <ele>1221.7</ele>
        <time>2018-11-03T10:45:18Z</time>
      </trkpt>
      <trkpt lat="42.890251" lon="0.747267">
        <ele>1224.4</ele>
        <time>2018-11-03T10:45:33Z</time>
      </trkpt>
      <trkpt lat="42.890145" lon="0.747263">
        <ele>1226.5</ele>
        <time>2018-11-03T10:45:47Z</time>
      </trkpt>
      <trkpt lat="42.890041" lon="0.747272">
        <ele>1228.8</ele>
        <time>2018-11-03T10:46:03Z</time>
      </trkpt>
      <trkpt lat="42.889946" lon="0.747280">
        <ele>1231.7</ele>
        <time>2018-11-03T10:46:22Z</time>
      </trkpt>
      <trkpt lat="42.889886" lon="0.747380">
        <ele>1233.5</ele>
        <time>2018-11-03T10:46:38Z</time>
      </trkpt>
      <trkpt lat="42.889852" lon="0.747573">
        <ele>1236.7</ele>
        <time>2018-11-03T10:47:35Z</time>
      </trkpt>
      <trkpt lat="42.889859" lon="0.747582">
        <ele>1236.7</ele>
        <time>2018-11-03T10:48:01Z</time>
      </trkpt>
      <trkpt lat="42.889839" lon="0.747618">
        <ele>1236.9</ele>
        <time>2018-11-03T10:48:45Z</time>
      </trkpt>
      <trkpt lat="42.889749" lon="0.747748">
        <ele>1239.1</ele>
        <time>2018-11-03T10:49:00Z</time>
      </trkpt>
      <trkpt lat="42.889676" lon="0.747882">
        <ele>1241.9</ele>
        <time>2018-11-03T10:49:17Z</time>
      </trkpt>
      <trkpt lat="42.889592" lon="0.748001">
        <ele>1244.4</ele>
        <time>2018-11-03T10:49:32Z</time>
      </trkpt>
      <trkpt lat="42.889528" lon="0.748094">
        <ele>1247.4</ele>
        <time>2018-11-03T10:49:49Z</time>
      </trkpt>
      <trkpt lat="42.889457" lon="0.748200">
        <ele>1250.0</ele>
        <time>2018-11-03T10:50:06Z</time>
      </trkpt>
      <trkpt lat="42.889373" lon="0.748303">
        <ele>1252.6</ele>
        <time>2018-11-03T10:50:22Z</time>
      </trkpt>
      <trkpt lat="42.889280" lon="0.748379">
        <ele>1254.7</ele>
        <time>2018-11-03T10:50:37Z</time>
      </trkpt>
      <trkpt lat="42.889186" lon="0.748457">
        <ele>1257.4</ele>
        <time>2018-11-03T10:50:54Z</time>
      </trkpt>
      <trkpt lat="42.889125" lon="0.748596">
        <ele>1259.6</ele>
        <time>2018-11-03T10:51:08Z</time>
      </trkpt>
      <trkpt lat="42.889073" lon="0.748688">
        <ele>1262.2</ele>
        <time>2018-11-03T10:51:23Z</time>
      </trkpt>
      <trkpt lat="42.888963" lon="0.748714">
        <ele>1265.0</ele>
        <time>2018-11-03T10:51:38Z</time>
      </trkpt>
      <trkpt lat="42.888888" lon="0.748780">
        <ele>1266.9</ele>
        <time>2018-11-03T10:51:52Z</time>
      </trkpt>
      <trkpt lat="42.888798" lon="0.748866">
        <ele>1268.8</ele>
        <time>2018-11-03T10:52:06Z</time>
      </trkpt>
      <trkpt lat="42.888693" lon="0.748949">
        <ele>1270.9</ele>
        <time>2018-11-03T10:52:21Z</time>
      </trkpt>
      <trkpt lat="42.888604" lon="0.749032">
        <ele>1273.6</ele>
        <time>2018-11-03T10:52:38Z</time>
      </trkpt>
      <trkpt lat="42.888512" lon="0.749141">
        <ele>1275.6</ele>
        <time>2018-11-03T10:52:53Z</time>
      </trkpt>
      <trkpt lat="42.888418" lon="0.749262">
        <ele>1278.2</ele>
        <time>2018-11-03T10:53:08Z</time>
      </trkpt>
      <trkpt lat="42.888340" lon="0.749345">
        <ele>1280.3</ele>
        <time>2018-11-03T10:53:22Z</time>
      </trkpt>
      <trkpt lat="42.888355" lon="0.749449">
        <ele>1282.2</ele>
        <time>2018-11-03T10:53:41Z</time>
      </trkpt>
      <trkpt lat="42.888283" lon="0.749526">
        <ele>1285.4</ele>
        <time>2018-11-03T10:54:01Z</time>
      </trkpt>
      <trkpt lat="42.888216" lon="0.749644">
        <ele>1288.3</ele>
        <time>2018-11-03T10:54:19Z</time>
      </trkpt>
      <trkpt lat="42.888152" lon="0.749732">
        <ele>1290.4</ele>
        <time>2018-11-03T10:54:35Z</time>
      </trkpt>
      <trkpt lat="42.888074" lon="0.749818">
        <ele>1294.0</ele>
        <time>2018-11-03T10:55:00Z</time>
      </trkpt>
      <trkpt lat="42.888051" lon="0.749944">
        <ele>1295.7</ele>
        <time>2018-11-03T10:55:15Z</time>
      </trkpt>
      <trkpt lat="42.887993" lon="0.750050">
        <ele>1298.0</ele>
        <time>2018-11-03T10:55:31Z</time>
      </trkpt>
      <trkpt lat="42.887959" lon="0.750156">
        <ele>1299.9</ele>
        <time>2018-11-03T10:55:45Z</time>
      </trkpt>
      <trkpt lat="42.887921" lon="0.750278">
        <ele>1302.4</ele>
        <time>2018-11-03T10:56:01Z</time>
      </trkpt>
      <trkpt lat="42.887871" lon="0.750387">
        <ele>1304.5</ele>
        <time>2018-11-03T10:56:17Z</time>
      </trkpt>
      <trkpt lat="42.887848" lon="0.750512">
        <ele>1307.1</ele>
        <time>2018-11-03T10:56:30Z</time>
      </trkpt>
      <trkpt lat="42.887816" lon="0.750648">
        <ele>1309.4</ele>
        <time>2018-11-03T10:56:44Z</time>
      </trkpt>
      <trkpt lat="42.887797" lon="0.750764">
        <ele>1311.7</ele>
        <time>2018-11-03T10:56:58Z</time>
      </trkpt>
      <trkpt lat="42.887751" lon="0.750856">
        <ele>1313.7</ele>
        <time>2018-11-03T10:57:11Z</time>
      </trkpt>
      <trkpt lat="42.887710" lon="0.750948">
        <ele>1317.3</ele>
        <time>2018-11-03T10:57:30Z</time>
      </trkpt>
      <trkpt lat="42.887694" lon="0.751121">
        <ele>1319.5</ele>
        <time>2018-11-03T10:57:45Z</time>
      </trkpt>
      <trkpt lat="42.887673" lon="0.751243">
        <ele>1322.0</ele>
        <time>2018-11-03T10:58:01Z</time>
      </trkpt>
      <trkpt lat="42.887648" lon="0.751343">
        <ele>1325.1</ele>
        <time>2018-11-03T10:58:29Z</time>
      </trkpt>
      <trkpt lat="42.887644" lon="0.751483">
        <ele>1327.3</ele>
        <time>2018-11-03T10:58:46Z</time>
      </trkpt>
      <trkpt lat="42.887640" lon="0.751591">
        <ele>1329.8</ele>
        <time>2018-11-03T10:59:06Z</time>
      </trkpt>
      <trkpt lat="42.887645" lon="0.751753">
        <ele>1332.3</ele>
        <time>2018-11-03T10:59:22Z</time>
      </trkpt>
      <trkpt lat="42.887606" lon="0.751878">
        <ele>1334.7</ele>
        <time>2018-11-03T10:59:35Z</time>
      </trkpt>
      <trkpt lat="42.887577" lon="0.752006">
        <ele>1336.6</ele>
        <time>2018-11-03T10:59:47Z</time>
      </trkpt>
      <trkpt lat="42.887515" lon="0.752117">
        <ele>1338.0</ele>
        <time>2018-11-03T10:59:59Z</time>
      </trkpt>
      <trkpt lat="42.887459" lon="0.752256">
        <ele>1339.4</ele>
        <time>2018-11-03T11:00:13Z</time>
      </trkpt>
      <trkpt lat="42.887425" lon="0.752385">
        <ele>1340.8</ele>
        <time>2018-11-03T11:00:26Z</time>
      </trkpt>
      <trkpt lat="42.887403" lon="0.752541">
        <ele>1342.2</ele>
        <time>2018-11-03T11:00:38Z</time>
      </trkpt>
      <trkpt lat="42.887357" lon="0.752678">
        <ele>1343.4</ele>
        <time>2018-11-03T11:00:50Z</time>
      </trkpt>
      <trkpt lat="42.887330" lon="0.752794">
        <ele>1343.9</ele>
        <time>2018-11-03T11:00:58Z</time>
      </trkpt>
      <trkpt lat="42.887297" lon="0.752908">
        <ele>1344.5</ele>
        <time>2018-11-03T11:01:07Z</time>
      </trkpt>
      <trkpt lat="42.887266" lon="0.753031">
        <ele>1345.6</ele>
        <time>2018-11-03T11:01:20Z</time>
      </trkpt>
      <trkpt lat="42.887244" lon="0.753158">
        <ele>1346.7</ele>
        <time>2018-11-03T11:01:30Z</time>
      </trkpt>
      <trkpt lat="42.887223" lon="0.753305">
        <ele>1347.5</ele>
        <time>2018-11-03T11:01:41Z</time>
      </trkpt>
      <trkpt lat="42.887218" lon="0.753435">
        <ele>1347.9</ele>
        <time>2018-11-03T11:01:54Z</time>
        <name>Cabane de Artigue</name>
      </trkpt>
      <trkpt lat="42.887236" lon="0.753636">
        <ele>1347.9</ele>
        <time>2018-11-03T11:08:41Z</time>
      </trkpt>
      <trkpt lat="42.887248" lon="0.753827">
        <ele>1348.0</ele>
        <time>2018-11-03T11:08:58Z</time>
      </trkpt>
      <trkpt lat="42.887303" lon="0.753904">
        <ele>1348.3</ele>
        <time>2018-11-03T11:09:18Z</time>
      </trkpt>
      <trkpt lat="42.887369" lon="0.753991">
        <ele>1348.6</ele>
        <time>2018-11-03T11:10:13Z</time>
      </trkpt>
      <trkpt lat="42.887483" lon="0.754092">
        <ele>1349.2</ele>
        <time>2018-11-03T11:10:28Z</time>
      </trkpt>
      <trkpt lat="42.887624" lon="0.754170">
        <ele>1349.7</ele>
        <time>2018-11-03T11:10:44Z</time>
      </trkpt>
      <trkpt lat="42.887693" lon="0.754205">
        <ele>1350.2</ele>
        <time>2018-11-03T11:11:11Z</time>
      </trkpt>
      <trkpt lat="42.887753" lon="0.754230">
        <ele>1351.9</ele>
        <time>2018-11-03T11:11:41Z</time>
      </trkpt>
      <trkpt lat="42.887768" lon="0.754246">
        <ele>1352.1</ele>
        <time>2018-11-03T11:12:12Z</time>
      </trkpt>
      <trkpt lat="42.887894" lon="0.754216">
        <ele>1352.1</ele>
        <time>2018-11-03T11:12:29Z</time>
      </trkpt>
      <trkpt lat="42.887994" lon="0.754193">
        <ele>1352.1</ele>
        <time>2018-11-03T11:12:38Z</time>
      </trkpt>
      <trkpt lat="42.888142" lon="0.754239">
        <ele>1352.4</ele>
        <time>2018-11-03T11:12:49Z</time>
      </trkpt>
      <trkpt lat="42.888248" lon="0.754363">
        <ele>1352.7</ele>
        <time>2018-11-03T11:12:58Z</time>
      </trkpt>
      <trkpt lat="42.888337" lon="0.754515">
        <ele>1352.9</ele>
        <time>2018-11-03T11:13:10Z</time>
      </trkpt>
      <trkpt lat="42.888434" lon="0.754659">
        <ele>1353.1</ele>
        <time>2018-11-03T11:13:20Z</time>
      </trkpt>
      <trkpt lat="42.888520" lon="0.754812">
        <ele>1353.4</ele>
        <time>2018-11-03T11:13:29Z</time>
      </trkpt>
      <trkpt lat="42.888601" lon="0.754947">
        <ele>1353.7</ele>
        <time>2018-11-03T11:13:40Z</time>
      </trkpt>
      <trkpt lat="42.888662" lon="0.755085">
        <ele>1353.8</ele>
        <time>2018-11-03T11:13:49Z</time>
      </trkpt>
      <trkpt lat="42.888724" lon="0.755229">
        <ele>1353.8</ele>
        <time>2018-11-03T11:13:59Z</time>
      </trkpt>
      <trkpt lat="42.888798" lon="0.755397">
        <ele>1354.3</ele>
        <time>2018-11-03T11:14:12Z</time>
      </trkpt>
      <trkpt lat="42.888882" lon="0.755551">
        <ele>1354.5</ele>
        <time>2018-11-03T11:14:23Z</time>
      </trkpt>
      <trkpt lat="42.888964" lon="0.755672">
        <ele>1354.8</ele>
        <time>2018-11-03T11:14:31Z</time>
      </trkpt>
      <trkpt lat="42.889029" lon="0.755783">
        <ele>1355.2</ele>
        <time>2018-11-03T11:14:41Z</time>
      </trkpt>
      <trkpt lat="42.889078" lon="0.755926">
        <ele>1355.5</ele>
        <time>2018-11-03T11:14:50Z</time>
      </trkpt>
      <trkpt lat="42.889123" lon="0.756064">
        <ele>1356.0</ele>
        <time>2018-11-03T11:14:59Z</time>
      </trkpt>
      <trkpt lat="42.889161" lon="0.756199">
        <ele>1356.3</ele>
        <time>2018-11-03T11:15:08Z</time>
      </trkpt>
      <trkpt lat="42.889210" lon="0.756346">
        <ele>1356.5</ele>
        <time>2018-11-03T11:15:17Z</time>
      </trkpt>
      <trkpt lat="42.889271" lon="0.756493">
        <ele>1356.7</ele>
        <time>2018-11-03T11:15:26Z</time>
      </trkpt>
      <trkpt lat="42.889316" lon="0.756610">
        <ele>1357.2</ele>
        <time>2018-11-03T11:15:34Z</time>
      </trkpt>
      <trkpt lat="42.889384" lon="0.756761">
        <ele>1357.6</ele>
        <time>2018-11-03T11:15:43Z</time>
      </trkpt>
      <trkpt lat="42.889431" lon="0.756915">
        <ele>1357.9</ele>
        <time>2018-11-03T11:15:53Z</time>
      </trkpt>
      <trkpt lat="42.889483" lon="0.757067">
        <ele>1358.9</ele>
        <time>2018-11-03T11:16:03Z</time>
      </trkpt>
      <trkpt lat="42.889522" lon="0.757213">
        <ele>1359.5</ele>
        <time>2018-11-03T11:16:13Z</time>
      </trkpt>
      <trkpt lat="42.889598" lon="0.757360">
        <ele>1360.3</ele>
        <time>2018-11-03T11:16:24Z</time>
      </trkpt>
      <trkpt lat="42.889678" lon="0.757508">
        <ele>1360.7</ele>
        <time>2018-11-03T11:16:35Z</time>
      </trkpt>
      <trkpt lat="42.889786" lon="0.757672">
        <ele>1361.8</ele>
        <time>2018-11-03T11:16:47Z</time>
      </trkpt>
      <trkpt lat="42.889866" lon="0.757813">
        <ele>1362.8</ele>
        <time>2018-11-03T11:16:58Z</time>
      </trkpt>
      <trkpt lat="42.889965" lon="0.757939">
        <ele>1363.4</ele>
        <time>2018-11-03T11:17:09Z</time>
      </trkpt>
      <trkpt lat="42.890103" lon="0.758050">
        <ele>1364.5</ele>
        <time>2018-11-03T11:17:23Z</time>
      </trkpt>
      <trkpt lat="42.890169" lon="0.758295">
        <ele>1366.0</ele>
        <time>2018-11-03T11:17:36Z</time>
      </trkpt>
      <trkpt lat="42.890140" lon="0.758406">
        <ele>1366.5</ele>
        <time>2018-11-03T11:17:45Z</time>
      </trkpt>
      <trkpt lat="42.890100" lon="0.758530">
        <ele>1366.6</ele>
        <time>2018-11-03T11:17:53Z</time>
      </trkpt>
      <trkpt lat="42.890067" lon="0.758673">
        <ele>1367.0</ele>
        <time>2018-11-03T11:18:03Z</time>
      </trkpt>
      <trkpt lat="42.890034" lon="0.758813">
        <ele>1366.9</ele>
        <time>2018-11-03T11:18:12Z</time>
      </trkpt>
      <trkpt lat="42.890017" lon="0.758945">
        <ele>1367.3</ele>
        <time>2018-11-03T11:18:22Z</time>
      </trkpt>
      <trkpt lat="42.890012" lon="0.759113">
        <ele>1367.8</ele>
        <time>2018-11-03T11:18:33Z</time>
      </trkpt>
      <trkpt lat="42.890013" lon="0.759290">
        <ele>1368.0</ele>
        <time>2018-11-03T11:18:44Z</time>
      </trkpt>
      <trkpt lat="42.889991" lon="0.759452">
        <ele>1368.1</ele>
        <time>2018-11-03T11:18:54Z</time>
      </trkpt>
      <trkpt lat="42.889998" lon="0.759601">
        <ele>1368.2</ele>
        <time>2018-11-03T11:19:04Z</time>
      </trkpt>
      <trkpt lat="42.890018" lon="0.759797">
        <ele>1368.5</ele>
        <time>2018-11-03T11:19:16Z</time>
      </trkpt>
      <trkpt lat="42.890035" lon="0.759938">
        <ele>1368.6</ele>
        <time>2018-11-03T11:19:30Z</time>
      </trkpt>
      <trkpt lat="42.890061" lon="0.760132">
        <ele>1368.5</ele>
        <time>2018-11-03T11:19:42Z</time>
      </trkpt>
      <trkpt lat="42.890099" lon="0.760289">
        <ele>1368.5</ele>
        <time>2018-11-03T11:19:52Z</time>
      </trkpt>
      <trkpt lat="42.890172" lon="0.760455">
        <ele>1368.9</ele>
        <time>2018-11-03T11:20:03Z</time>
      </trkpt>
      <trkpt lat="42.890262" lon="0.760588">
        <ele>1369.3</ele>
        <time>2018-11-03T11:20:15Z</time>
      </trkpt>
      <trkpt lat="42.890335" lon="0.760777">
        <ele>1369.6</ele>
        <time>2018-11-03T11:20:28Z</time>
      </trkpt>
      <trkpt lat="42.890412" lon="0.760940">
        <ele>1369.8</ele>
        <time>2018-11-03T11:20:41Z</time>
      </trkpt>
      <trkpt lat="42.890462" lon="0.761132">
        <ele>1370.4</ele>
        <time>2018-11-03T11:20:52Z</time>
      </trkpt>
      <trkpt lat="42.890541" lon="0.761260">
        <ele>1370.7</ele>
        <time>2018-11-03T11:21:02Z</time>
      </trkpt>
      <trkpt lat="42.890620" lon="0.761373">
        <ele>1370.7</ele>
        <time>2018-11-03T11:21:12Z</time>
      </trkpt>
      <trkpt lat="42.890717" lon="0.761487">
        <ele>1370.9</ele>
        <time>2018-11-03T11:21:22Z</time>
      </trkpt>
      <trkpt lat="42.890800" lon="0.761573">
        <ele>1371.1</ele>
        <time>2018-11-03T11:21:31Z</time>
      </trkpt>
      <trkpt lat="42.890893" lon="0.761687">
        <ele>1371.5</ele>
        <time>2018-11-03T11:21:41Z</time>
      </trkpt>
      <trkpt lat="42.890974" lon="0.761788">
        <ele>1371.9</ele>
        <time>2018-11-03T11:21:50Z</time>
      </trkpt>
      <trkpt lat="42.891051" lon="0.761907">
        <ele>1372.3</ele>
        <time>2018-11-03T11:21:59Z</time>
      </trkpt>
      <trkpt lat="42.891143" lon="0.761968">
        <ele>1372.4</ele>
        <time>2018-11-03T11:22:09Z</time>
      </trkpt>
      <trkpt lat="42.891261" lon="0.762046">
        <ele>1373.3</ele>
        <time>2018-11-03T11:22:22Z</time>
      </trkpt>
      <trkpt lat="42.891378" lon="0.762136">
        <ele>1374.4</ele>
        <time>2018-11-03T11:22:33Z</time>
      </trkpt>
      <trkpt lat="42.891485" lon="0.762185">
        <ele>1375.3</ele>
        <time>2018-11-03T11:22:43Z</time>
      </trkpt>
      <trkpt lat="42.891594" lon="0.762146">
        <ele>1376.4</ele>
        <time>2018-11-03T11:22:54Z</time>
      </trkpt>
      <trkpt lat="42.891698" lon="0.762064">
        <ele>1377.0</ele>
        <time>2018-11-03T11:23:04Z</time>
      </trkpt>
      <trkpt lat="42.891811" lon="0.761993">
        <ele>1377.3</ele>
        <time>2018-11-03T11:23:15Z</time>
      </trkpt>
      <trkpt lat="42.891924" lon="0.761934">
        <ele>1377.7</ele>
        <time>2018-11-03T11:23:25Z</time>
      </trkpt>
      <trkpt lat="42.892074" lon="0.761913">
        <ele>1378.4</ele>
        <time>2018-11-03T11:23:35Z</time>
      </trkpt>
      <trkpt lat="42.892180" lon="0.761940">
        <ele>1379.1</ele>
        <time>2018-11-03T11:23:45Z</time>
      </trkpt>
      <trkpt lat="42.892327" lon="0.761931">
        <ele>1379.7</ele>
        <time>2018-11-03T11:23:58Z</time>
      </trkpt>
      <trkpt lat="42.892455" lon="0.761906">
        <ele>1380.3</ele>
        <time>2018-11-03T11:24:09Z</time>
      </trkpt>
      <trkpt lat="42.892570" lon="0.762017">
        <ele>1380.9</ele>
        <time>2018-11-03T11:24:18Z</time>
      </trkpt>
      <trkpt lat="42.892650" lon="0.762104">
        <ele>1381.5</ele>
        <time>2018-11-03T11:24:27Z</time>
      </trkpt>
      <trkpt lat="42.892743" lon="0.762161">
        <ele>1382.4</ele>
        <time>2018-11-03T11:24:38Z</time>
      </trkpt>
      <trkpt lat="42.892844" lon="0.762229">
        <ele>1383.2</ele>
        <time>2018-11-03T11:24:47Z</time>
      </trkpt>
      <trkpt lat="42.892925" lon="0.762317">
        <ele>1384.1</ele>
        <time>2018-11-03T11:24:56Z</time>
      </trkpt>
      <trkpt lat="42.893026" lon="0.762335">
        <ele>1384.9</ele>
        <time>2018-11-03T11:25:07Z</time>
      </trkpt>
      <trkpt lat="42.893125" lon="0.762355">
        <ele>1384.9</ele>
        <time>2018-11-03T11:25:18Z</time>
      </trkpt>
      <trkpt lat="42.893210" lon="0.762330">
        <ele>1385.5</ele>
        <time>2018-11-03T11:25:33Z</time>
      </trkpt>
      <trkpt lat="42.893312" lon="0.762371">
        <ele>1385.8</ele>
        <time>2018-11-03T11:25:46Z</time>
      </trkpt>
      <trkpt lat="42.893314" lon="0.762505">
        <ele>1386.8</ele>
        <time>2018-11-03T11:25:57Z</time>
      </trkpt>
      <trkpt lat="42.893282" lon="0.762637">
        <ele>1388.2</ele>
        <time>2018-11-03T11:26:09Z</time>
      </trkpt>
      <trkpt lat="42.893259" lon="0.762794">
        <ele>1389.4</ele>
        <time>2018-11-03T11:26:20Z</time>
      </trkpt>
      <trkpt lat="42.893191" lon="0.762925">
        <ele>1390.2</ele>
        <time>2018-11-03T11:26:30Z</time>
      </trkpt>
      <trkpt lat="42.893123" lon="0.763046">
        <ele>1390.8</ele>
        <time>2018-11-03T11:26:39Z</time>
      </trkpt>
      <trkpt lat="42.893158" lon="0.763195">
        <ele>1391.3</ele>
        <time>2018-11-03T11:26:49Z</time>
      </trkpt>
      <trkpt lat="42.893264" lon="0.763305">
        <ele>1391.9</ele>
        <time>2018-11-03T11:26:59Z</time>
      </trkpt>
      <trkpt lat="42.893354" lon="0.763434">
        <ele>1392.5</ele>
        <time>2018-11-03T11:27:10Z</time>
      </trkpt>
      <trkpt lat="42.893462" lon="0.763527">
        <ele>1392.7</ele>
        <time>2018-11-03T11:27:22Z</time>
      </trkpt>
      <trkpt lat="42.893556" lon="0.763682">
        <ele>1392.9</ele>
        <time>2018-11-03T11:27:32Z</time>
      </trkpt>
      <trkpt lat="42.893615" lon="0.763847">
        <ele>1392.7</ele>
        <time>2018-11-03T11:27:42Z</time>
      </trkpt>
      <trkpt lat="42.893665" lon="0.763990">
        <ele>1392.8</ele>
        <time>2018-11-03T11:27:51Z</time>
      </trkpt>
      <trkpt lat="42.893714" lon="0.764140">
        <ele>1393.1</ele>
        <time>2018-11-03T11:28:01Z</time>
      </trkpt>
      <trkpt lat="42.893751" lon="0.764302">
        <ele>1393.4</ele>
        <time>2018-11-03T11:28:12Z</time>
      </trkpt>
      <trkpt lat="42.893788" lon="0.764465">
        <ele>1393.7</ele>
        <time>2018-11-03T11:28:24Z</time>
      </trkpt>
      <trkpt lat="42.893813" lon="0.764623">
        <ele>1394.1</ele>
        <time>2018-11-03T11:28:34Z</time>
      </trkpt>
      <trkpt lat="42.893853" lon="0.764752">
        <ele>1394.4</ele>
        <time>2018-11-03T11:28:42Z</time>
      </trkpt>
      <trkpt lat="42.893908" lon="0.764895">
        <ele>1394.8</ele>
        <time>2018-11-03T11:28:51Z</time>
      </trkpt>
      <trkpt lat="42.893956" lon="0.765011">
        <ele>1394.8</ele>
        <time>2018-11-03T11:28:59Z</time>
      </trkpt>
      <trkpt lat="42.893994" lon="0.765133">
        <ele>1394.9</ele>
        <time>2018-11-03T11:29:08Z</time>
      </trkpt>
      <trkpt lat="42.894043" lon="0.765311">
        <ele>1394.9</ele>
        <time>2018-11-03T11:29:20Z</time>
      </trkpt>
      <trkpt lat="42.894100" lon="0.765434">
        <ele>1395.9</ele>
        <time>2018-11-03T11:29:33Z</time>
      </trkpt>
      <trkpt lat="42.894126" lon="0.765536">
        <ele>1395.6</ele>
        <time>2018-11-03T11:30:01Z</time>
      </trkpt>
      <trkpt lat="42.894169" lon="0.765691">
        <ele>1393.4</ele>
        <time>2018-11-03T11:30:20Z</time>
        <name>Ruisseau Goute Artignon</name>
      </trkpt>
      <trkpt lat="42.894117" lon="0.765761">
        <ele>1392.7</ele>
        <time>2018-11-03T11:30:37Z</time>
      </trkpt>
      <trkpt lat="42.893990" lon="0.765785">
        <ele>1392.4</ele>
        <time>2018-11-03T11:30:54Z</time>
      </trkpt>
      <trkpt lat="42.893843" lon="0.765838">
        <ele>1392.4</ele>
        <time>2018-11-03T11:31:06Z</time>
      </trkpt>
      <trkpt lat="42.893745" lon="0.765894">
        <ele>1392.1</ele>
        <time>2018-11-03T11:31:19Z</time>
      </trkpt>
      <trkpt lat="42.893611" lon="0.765882">
        <ele>1392.1</ele>
        <time>2018-11-03T11:31:33Z</time>
      </trkpt>
      <trkpt lat="42.893468" lon="0.765818">
        <ele>1392.1</ele>
        <time>2018-11-03T11:31:45Z</time>
      </trkpt>
      <trkpt lat="42.893338" lon="0.765837">
        <ele>1391.4</ele>
        <time>2018-11-03T11:31:55Z</time>
      </trkpt>
      <trkpt lat="42.893214" lon="0.765853">
        <ele>1390.7</ele>
        <time>2018-11-03T11:32:07Z</time>
      </trkpt>
      <trkpt lat="42.893100" lon="0.765852">
        <ele>1390.3</ele>
        <time>2018-11-03T11:32:18Z</time>
      </trkpt>
      <trkpt lat="42.892986" lon="0.765966">
        <ele>1390.2</ele>
        <time>2018-11-03T11:32:32Z</time>
      </trkpt>
      <trkpt lat="42.892851" lon="0.765914">
        <ele>1389.6</ele>
        <time>2018-11-03T11:32:45Z</time>
      </trkpt>
      <trkpt lat="42.892735" lon="0.765837">
        <ele>1389.7</ele>
        <time>2018-11-03T11:32:55Z</time>
      </trkpt>
      <trkpt lat="42.892647" lon="0.765767">
        <ele>1389.4</ele>
        <time>2018-11-03T11:33:04Z</time>
      </trkpt>
      <trkpt lat="42.892547" lon="0.765716">
        <ele>1389.3</ele>
        <time>2018-11-03T11:33:14Z</time>
      </trkpt>
      <trkpt lat="42.892456" lon="0.765676">
        <ele>1389.1</ele>
        <time>2018-11-03T11:33:24Z</time>
      </trkpt>
      <trkpt lat="42.892346" lon="0.765693">
        <ele>1389.0</ele>
        <time>2018-11-03T11:33:37Z</time>
      </trkpt>
      <trkpt lat="42.892268" lon="0.765726">
        <ele>1389.5</ele>
        <time>2018-11-03T11:34:01Z</time>
      </trkpt>
      <trkpt lat="42.892236" lon="0.765802">
        <ele>1389.5</ele>
        <time>2018-11-03T11:34:20Z</time>
      </trkpt>
      <trkpt lat="42.892123" lon="0.765884">
        <ele>1388.5</ele>
        <time>2018-11-03T11:34:33Z</time>
      </trkpt>
      <trkpt lat="42.892008" lon="0.765971">
        <ele>1388.4</ele>
        <time>2018-11-03T11:34:51Z</time>
      </trkpt>
      <trkpt lat="42.891950" lon="0.766098">
        <ele>1388.3</ele>
        <time>2018-11-03T11:35:03Z</time>
      </trkpt>
      <trkpt lat="42.891918" lon="0.766075">
        <ele>1388.8</ele>
        <time>2018-11-03T11:35:18Z</time>
      </trkpt>
      <trkpt lat="42.891892" lon="0.766055">
        <ele>1389.3</ele>
        <time>2018-11-03T11:35:45Z</time>
      </trkpt>
      <trkpt lat="42.891805" lon="0.766177">
        <ele>1389.1</ele>
        <time>2018-11-03T11:36:01Z</time>
      </trkpt>
      <trkpt lat="42.891719" lon="0.766344">
        <ele>1390.8</ele>
        <time>2018-11-03T11:36:18Z</time>
      </trkpt>
      <trkpt lat="42.891650" lon="0.766437">
        <ele>1389.5</ele>
        <time>2018-11-03T11:36:35Z</time>
      </trkpt>
      <trkpt lat="42.891573" lon="0.766469">
        <ele>1389.8</ele>
        <time>2018-11-03T11:36:52Z</time>
      </trkpt>
      <trkpt lat="42.891426" lon="0.766520">
        <ele>1390.0</ele>
        <time>2018-11-03T11:37:04Z</time>
      </trkpt>
      <trkpt lat="42.891297" lon="0.766611">
        <ele>1389.8</ele>
        <time>2018-11-03T11:37:16Z</time>
      </trkpt>
      <trkpt lat="42.891208" lon="0.766710">
        <ele>1389.4</ele>
        <time>2018-11-03T11:37:27Z</time>
      </trkpt>
      <trkpt lat="42.891095" lon="0.766834">
        <ele>1388.5</ele>
        <time>2018-11-03T11:37:43Z</time>
      </trkpt>
      <trkpt lat="42.890992" lon="0.766976">
        <ele>1387.7</ele>
        <time>2018-11-03T11:37:54Z</time>
      </trkpt>
      <trkpt lat="42.890880" lon="0.767117">
        <ele>1387.3</ele>
        <time>2018-11-03T11:38:06Z</time>
      </trkpt>
      <trkpt lat="42.890765" lon="0.767236">
        <ele>1386.4</ele>
        <time>2018-11-03T11:38:17Z</time>
      </trkpt>
      <trkpt lat="42.890680" lon="0.767351">
        <ele>1385.4</ele>
        <time>2018-11-03T11:38:27Z</time>
      </trkpt>
      <trkpt lat="42.890587" lon="0.767445">
        <ele>1384.4</ele>
        <time>2018-11-03T11:38:38Z</time>
      </trkpt>
      <trkpt lat="42.890490" lon="0.767583">
        <ele>1384.0</ele>
        <time>2018-11-03T11:38:49Z</time>
      </trkpt>
      <trkpt lat="42.890425" lon="0.767691">
        <ele>1383.6</ele>
        <time>2018-11-03T11:39:03Z</time>
      </trkpt>
      <trkpt lat="42.890370" lon="0.767824">
        <ele>1383.1</ele>
        <time>2018-11-03T11:39:15Z</time>
      </trkpt>
      <trkpt lat="42.890321" lon="0.767982">
        <ele>1382.3</ele>
        <time>2018-11-03T11:39:28Z</time>
      </trkpt>
      <trkpt lat="42.890275" lon="0.768142">
        <ele>1381.0</ele>
        <time>2018-11-03T11:39:39Z</time>
      </trkpt>
      <trkpt lat="42.890245" lon="0.768315">
        <ele>1379.8</ele>
        <time>2018-11-03T11:39:52Z</time>
      </trkpt>
      <trkpt lat="42.890301" lon="0.768545">
        <ele>1378.7</ele>
        <time>2018-11-03T11:40:09Z</time>
      </trkpt>
      <trkpt lat="42.890356" lon="0.768724">
        <ele>1377.3</ele>
        <time>2018-11-03T11:40:25Z</time>
      </trkpt>
      <trkpt lat="42.890329" lon="0.768937">
        <ele>1376.3</ele>
        <time>2018-11-03T11:40:38Z</time>
      </trkpt>
      <trkpt lat="42.890318" lon="0.769094">
        <ele>1376.1</ele>
        <time>2018-11-03T11:40:51Z</time>
      </trkpt>
      <trkpt lat="42.890293" lon="0.769233">
        <ele>1375.3</ele>
        <time>2018-11-03T11:41:08Z</time>
      </trkpt>
      <trkpt lat="42.890245" lon="0.769404">
        <ele>1375.0</ele>
        <time>2018-11-03T11:41:22Z</time>
      </trkpt>
      <trkpt lat="42.890218" lon="0.769550">
        <ele>1374.6</ele>
        <time>2018-11-03T11:41:32Z</time>
      </trkpt>
      <trkpt lat="42.890223" lon="0.769701">
        <ele>1374.2</ele>
        <time>2018-11-03T11:41:42Z</time>
      </trkpt>
      <trkpt lat="42.890234" lon="0.769869">
        <ele>1373.9</ele>
        <time>2018-11-03T11:41:54Z</time>
      </trkpt>
      <trkpt lat="42.890267" lon="0.770035">
        <ele>1373.2</ele>
        <time>2018-11-03T11:42:04Z</time>
      </trkpt>
      <trkpt lat="42.890278" lon="0.770180">
        <ele>1372.7</ele>
        <time>2018-11-03T11:42:14Z</time>
      </trkpt>
      <trkpt lat="42.890300" lon="0.770364">
        <ele>1371.7</ele>
        <time>2018-11-03T11:42:25Z</time>
      </trkpt>
      <trkpt lat="42.890284" lon="0.770518">
        <ele>1369.3</ele>
        <time>2018-11-03T11:42:38Z</time>
      </trkpt>
      <trkpt lat="42.890326" lon="0.770677">
        <ele>1367.4</ele>
        <time>2018-11-03T11:42:59Z</time>
      </trkpt>
      <trkpt lat="42.890316" lon="0.770799">
        <ele>1368.3</ele>
        <time>2018-11-03T11:43:14Z</time>
      </trkpt>
      <trkpt lat="42.890240" lon="0.770907">
        <ele>1369.2</ele>
        <time>2018-11-03T11:43:30Z</time>
      </trkpt>
      <trkpt lat="42.890158" lon="0.771019">
        <ele>1371.6</ele>
        <time>2018-11-03T11:43:48Z</time>
      </trkpt>
      <trkpt lat="42.890124" lon="0.771055">
        <ele>1372.0</ele>
        <time>2018-11-03T11:44:17Z</time>
      </trkpt>
      <trkpt lat="42.890073" lon="0.771115">
        <ele>1372.0</ele>
        <time>2018-11-03T11:44:42Z</time>
      </trkpt>
      <trkpt lat="42.890008" lon="0.771252">
        <ele>1372.6</ele>
        <time>2018-11-03T11:44:59Z</time>
      </trkpt>
      <trkpt lat="42.889917" lon="0.771344">
        <ele>1372.6</ele>
        <time>2018-11-03T11:45:15Z</time>
      </trkpt>
      <trkpt lat="42.889821" lon="0.771431">
        <ele>1372.8</ele>
        <time>2018-11-03T11:45:26Z</time>
      </trkpt>
      <trkpt lat="42.889734" lon="0.771477">
        <ele>1373.6</ele>
        <time>2018-11-03T11:45:42Z</time>
      </trkpt>
      <trkpt lat="42.889667" lon="0.771605">
        <ele>1374.2</ele>
        <time>2018-11-03T11:45:55Z</time>
      </trkpt>
      <trkpt lat="42.889598" lon="0.771733">
        <ele>1374.3</ele>
        <time>2018-11-03T11:46:10Z</time>
      </trkpt>
      <trkpt lat="42.889537" lon="0.771840">
        <ele>1375.1</ele>
        <time>2018-11-03T11:46:22Z</time>
      </trkpt>
      <trkpt lat="42.889482" lon="0.771980">
        <ele>1375.2</ele>
        <time>2018-11-03T11:46:34Z</time>
      </trkpt>
      <trkpt lat="42.889408" lon="0.772122">
        <ele>1376.2</ele>
        <time>2018-11-03T11:46:48Z</time>
      </trkpt>
      <trkpt lat="42.889371" lon="0.772229">
        <ele>1377.5</ele>
        <time>2018-11-03T11:47:17Z</time>
      </trkpt>
      <trkpt lat="42.889403" lon="0.772252">
        <ele>1377.5</ele>
        <time>2018-11-03T11:47:42Z</time>
      </trkpt>
      <trkpt lat="42.889326" lon="0.772402">
        <ele>1376.9</ele>
        <time>2018-11-03T11:47:57Z</time>
      </trkpt>
      <trkpt lat="42.889264" lon="0.772529">
        <ele>1377.3</ele>
        <time>2018-11-03T11:48:16Z</time>
      </trkpt>
      <trkpt lat="42.889279" lon="0.772607">
        <ele>1378.2</ele>
        <time>2018-11-03T11:48:50Z</time>
      </trkpt>
      <trkpt lat="42.889316" lon="0.772676">
        <ele>1378.1</ele>
        <time>2018-11-03T11:49:12Z</time>
      </trkpt>
      <trkpt lat="42.889276" lon="0.772701">
        <ele>1378.7</ele>
        <time>2018-11-03T11:49:36Z</time>
      </trkpt>
      <trkpt lat="42.889268" lon="0.772753">
        <ele>1378.7</ele>
        <time>2018-11-03T11:49:59Z</time>
      </trkpt>
      <trkpt lat="42.889218" lon="0.772884">
        <ele>1379.0</ele>
        <time>2018-11-03T11:50:17Z</time>
      </trkpt>
      <trkpt lat="42.889162" lon="0.773025">
        <ele>1380.1</ele>
        <time>2018-11-03T11:50:30Z</time>
      </trkpt>
      <trkpt lat="42.889132" lon="0.773203">
        <ele>1381.4</ele>
        <time>2018-11-03T11:50:46Z</time>
      </trkpt>
      <trkpt lat="42.889101" lon="0.773405">
        <ele>1381.6</ele>
        <time>2018-11-03T11:51:01Z</time>
      </trkpt>
      <trkpt lat="42.889032" lon="0.773579">
        <ele>1382.3</ele>
        <time>2018-11-03T11:51:16Z</time>
      </trkpt>
      <trkpt lat="42.888992" lon="0.773745">
        <ele>1382.2</ele>
        <time>2018-11-03T11:51:30Z</time>
      </trkpt>
      <trkpt lat="42.888922" lon="0.773926">
        <ele>1382.7</ele>
        <time>2018-11-03T11:51:44Z</time>
      </trkpt>
      <trkpt lat="42.888874" lon="0.774064">
        <ele>1383.9</ele>
        <time>2018-11-03T11:51:57Z</time>
      </trkpt>
      <trkpt lat="42.888831" lon="0.774248">
        <ele>1384.8</ele>
        <time>2018-11-03T11:52:10Z</time>
      </trkpt>
      <trkpt lat="42.888799" lon="0.774394">
        <ele>1384.8</ele>
        <time>2018-11-03T11:52:22Z</time>
      </trkpt>
      <trkpt lat="42.888724" lon="0.774532">
        <ele>1386.4</ele>
        <time>2018-11-03T11:52:36Z</time>
      </trkpt>
      <trkpt lat="42.888659" lon="0.774644">
        <ele>1387.9</ele>
        <time>2018-11-03T11:52:48Z</time>
      </trkpt>
      <trkpt lat="42.888597" lon="0.774781">
        <ele>1389.5</ele>
        <time>2018-11-03T11:53:03Z</time>
      </trkpt>
      <trkpt lat="42.888540" lon="0.774931">
        <ele>1389.9</ele>
        <time>2018-11-03T11:53:16Z</time>
      </trkpt>
      <trkpt lat="42.888492" lon="0.775071">
        <ele>1390.2</ele>
        <time>2018-11-03T11:53:27Z</time>
      </trkpt>
      <trkpt lat="42.888450" lon="0.775211">
        <ele>1391.4</ele>
        <time>2018-11-03T11:53:43Z</time>
      </trkpt>
      <trkpt lat="42.888407" lon="0.775332">
        <ele>1392.2</ele>
        <time>2018-11-03T11:53:55Z</time>
      </trkpt>
      <trkpt lat="42.888350" lon="0.775458">
        <ele>1392.2</ele>
        <time>2018-11-03T11:54:05Z</time>
      </trkpt>
      <trkpt lat="42.888285" lon="0.775604">
        <ele>1391.5</ele>
        <time>2018-11-03T11:54:17Z</time>
      </trkpt>
      <trkpt lat="42.888265" lon="0.775731">
        <ele>1390.7</ele>
        <time>2018-11-03T11:54:29Z</time>
      </trkpt>
      <trkpt lat="42.888230" lon="0.775856">
        <ele>1391.7</ele>
        <time>2018-11-03T11:54:45Z</time>
      </trkpt>
      <trkpt lat="42.888196" lon="0.776003">
        <ele>1392.3</ele>
        <time>2018-11-03T11:54:59Z</time>
      </trkpt>
      <trkpt lat="42.888140" lon="0.776115">
        <ele>1392.9</ele>
        <time>2018-11-03T11:55:11Z</time>
      </trkpt>
      <trkpt lat="42.888128" lon="0.776211">
        <ele>1393.8</ele>
        <time>2018-11-03T11:55:26Z</time>
      </trkpt>
      <trkpt lat="42.888087" lon="0.776325">
        <ele>1394.5</ele>
        <time>2018-11-03T11:55:38Z</time>
      </trkpt>
      <trkpt lat="42.888020" lon="0.776415">
        <ele>1394.9</ele>
        <time>2018-11-03T11:55:50Z</time>
      </trkpt>
      <trkpt lat="42.887962" lon="0.776505">
        <ele>1394.0</ele>
        <time>2018-11-03T11:56:11Z</time>
      </trkpt>
      <trkpt lat="42.887896" lon="0.776621">
        <ele>1394.3</ele>
        <time>2018-11-03T11:56:25Z</time>
      </trkpt>
      <trkpt lat="42.887853" lon="0.776728">
        <ele>1394.1</ele>
        <time>2018-11-03T11:56:39Z</time>
      </trkpt>
      <trkpt lat="42.887779" lon="0.776808">
        <ele>1394.4</ele>
        <time>2018-11-03T11:56:52Z</time>
      </trkpt>
      <trkpt lat="42.887707" lon="0.776894">
        <ele>1394.0</ele>
        <time>2018-11-03T11:57:03Z</time>
      </trkpt>
      <trkpt lat="42.887690" lon="0.777030">
        <ele>1394.5</ele>
        <time>2018-11-03T11:57:14Z</time>
      </trkpt>
      <trkpt lat="42.887702" lon="0.777139">
        <ele>1395.3</ele>
        <time>2018-11-03T11:57:32Z</time>
      </trkpt>
      <trkpt lat="42.887697" lon="0.777137">
        <ele>1394.3</ele>
        <time>2018-11-03T11:59:56Z</time>
      </trkpt>
      <trkpt lat="42.887705" lon="0.777127">
        <ele>1394.2</ele>
        <time>2018-11-03T12:00:59Z</time>
        <name>Col Artigaux</name>
      </trkpt>
      <trkpt lat="42.887702" lon="0.777153">
        <ele>1394.3</ele>
        <time>2018-11-03T12:02:08Z</time>
      </trkpt>
      <trkpt lat="42.887742" lon="0.777181">
        <ele>1395.3</ele>
        <time>2018-11-03T12:03:40Z</time>
      </trkpt>
      <trkpt lat="42.887832" lon="0.777218">
        <ele>1396.3</ele>
        <time>2018-11-03T12:03:53Z</time>
      </trkpt>
      <trkpt lat="42.887920" lon="0.777264">
        <ele>1397.6</ele>
        <time>2018-11-03T12:04:10Z</time>
      </trkpt>
      <trkpt lat="42.888016" lon="0.777298">
        <ele>1399.4</ele>
        <time>2018-11-03T12:04:24Z</time>
      </trkpt>
      <trkpt lat="42.888119" lon="0.777310">
        <ele>1402.2</ele>
        <time>2018-11-03T12:04:40Z</time>
      </trkpt>
      <trkpt lat="42.888215" lon="0.777303">
        <ele>1404.8</ele>
        <time>2018-11-03T12:04:56Z</time>
      </trkpt>
      <trkpt lat="42.888313" lon="0.777310">
        <ele>1408.3</ele>
        <time>2018-11-03T12:05:14Z</time>
      </trkpt>
      <trkpt lat="42.888400" lon="0.777287">
        <ele>1412.3</ele>
        <time>2018-11-03T12:05:35Z</time>
      </trkpt>
      <trkpt lat="42.888496" lon="0.777285">
        <ele>1416.0</ele>
        <time>2018-11-03T12:05:55Z</time>
      </trkpt>
      <trkpt lat="42.888579" lon="0.777229">
        <ele>1419.8</ele>
        <time>2018-11-03T12:06:14Z</time>
      </trkpt>
      <trkpt lat="42.888666" lon="0.777177">
        <ele>1423.9</ele>
        <time>2018-11-03T12:06:39Z</time>
      </trkpt>
      <trkpt lat="42.888749" lon="0.777124">
        <ele>1428.1</ele>
        <time>2018-11-03T12:07:02Z</time>
      </trkpt>
      <trkpt lat="42.888823" lon="0.777059">
        <ele>1432.8</ele>
        <time>2018-11-03T12:07:32Z</time>
      </trkpt>
      <trkpt lat="42.888907" lon="0.777091">
        <ele>1435.8</ele>
        <time>2018-11-03T12:07:54Z</time>
      </trkpt>
      <trkpt lat="42.888984" lon="0.777150">
        <ele>1439.9</ele>
        <time>2018-11-03T12:08:26Z</time>
      </trkpt>
      <trkpt lat="42.889041" lon="0.777225">
        <ele>1444.6</ele>
        <time>2018-11-03T12:08:56Z</time>
      </trkpt>
      <trkpt lat="42.889107" lon="0.777162">
        <ele>1448.7</ele>
        <time>2018-11-03T12:09:29Z</time>
      </trkpt>
      <trkpt lat="42.889197" lon="0.777186">
        <ele>1452.3</ele>
        <time>2018-11-03T12:09:54Z</time>
      </trkpt>
      <trkpt lat="42.889235" lon="0.777103">
        <ele>1456.6</ele>
        <time>2018-11-03T12:10:26Z</time>
      </trkpt>
      <trkpt lat="42.889320" lon="0.777043">
        <ele>1462.5</ele>
        <time>2018-11-03T12:11:07Z</time>
      </trkpt>
      <trkpt lat="42.889379" lon="0.776972">
        <ele>1465.9</ele>
        <time>2018-11-03T12:11:30Z</time>
      </trkpt>
      <trkpt lat="42.889454" lon="0.776895">
        <ele>1469.4</ele>
        <time>2018-11-03T12:11:55Z</time>
      </trkpt>
      <trkpt lat="42.889538" lon="0.776844">
        <ele>1472.8</ele>
        <time>2018-11-03T12:12:19Z</time>
      </trkpt>
      <trkpt lat="42.889612" lon="0.776793">
        <ele>1476.4</ele>
        <time>2018-11-03T12:12:51Z</time>
      </trkpt>
      <trkpt lat="42.889703" lon="0.776763">
        <ele>1479.8</ele>
        <time>2018-11-03T12:13:15Z</time>
      </trkpt>
      <trkpt lat="42.889767" lon="0.776680">
        <ele>1483.1</ele>
        <time>2018-11-03T12:13:39Z</time>
      </trkpt>
      <trkpt lat="42.889820" lon="0.776573">
        <ele>1486.0</ele>
        <time>2018-11-03T12:14:03Z</time>
      </trkpt>
      <trkpt lat="42.889883" lon="0.776470">
        <ele>1488.7</ele>
        <time>2018-11-03T12:14:24Z</time>
      </trkpt>
      <trkpt lat="42.889966" lon="0.776391">
        <ele>1492.0</ele>
        <time>2018-11-03T12:14:45Z</time>
      </trkpt>
      <trkpt lat="42.890058" lon="0.776400">
        <ele>1495.2</ele>
        <time>2018-11-03T12:16:08Z</time>
      </trkpt>
      <trkpt lat="42.890159" lon="0.776342">
        <ele>1498.4</ele>
        <time>2018-11-03T12:16:28Z</time>
      </trkpt>
      <trkpt lat="42.890234" lon="0.776261">
        <ele>1501.7</ele>
        <time>2018-11-03T12:16:48Z</time>
      </trkpt>
      <trkpt lat="42.890322" lon="0.776205">
        <ele>1505.5</ele>
        <time>2018-11-03T12:17:21Z</time>
      </trkpt>
      <trkpt lat="42.890402" lon="0.776229">
        <ele>1509.6</ele>
        <time>2018-11-03T12:17:49Z</time>
      </trkpt>
      <trkpt lat="42.890450" lon="0.776321">
        <ele>1514.5</ele>
        <time>2018-11-03T12:18:20Z</time>
      </trkpt>
      <trkpt lat="42.890492" lon="0.776423">
        <ele>1518.2</ele>
        <time>2018-11-03T12:18:44Z</time>
      </trkpt>
      <trkpt lat="42.890558" lon="0.776466">
        <ele>1524.3</ele>
        <time>2018-11-03T12:19:41Z</time>
      </trkpt>
      <trkpt lat="42.890626" lon="0.776507">
        <ele>1530.7</ele>
        <time>2018-11-03T12:20:46Z</time>
      </trkpt>
      <trkpt lat="42.890685" lon="0.776574">
        <ele>1536.3</ele>
        <time>2018-11-03T12:22:27Z</time>
      </trkpt>
      <trkpt lat="42.890786" lon="0.776635">
        <ele>1543.5</ele>
        <time>2018-11-03T12:24:01Z</time>
      </trkpt>
      <trkpt lat="42.890895" lon="0.776660">
        <ele>1552.3</ele>
        <time>2018-11-03T12:25:00Z</time>
      </trkpt>
      <trkpt lat="42.890984" lon="0.776688">
        <ele>1558.9</ele>
        <time>2018-11-03T12:25:52Z</time>
      </trkpt>
      <trkpt lat="42.891080" lon="0.776723">
        <ele>1566.1</ele>
        <time>2018-11-03T12:26:33Z</time>
      </trkpt>
      <trkpt lat="42.891154" lon="0.776751">
        <ele>1570.4</ele>
        <time>2018-11-03T12:27:25Z</time>
      </trkpt>
      <trkpt lat="42.891195" lon="0.776741">
        <ele>1572.2</ele>
        <time>2018-11-03T12:28:34Z</time>
      </trkpt>
      <trkpt lat="42.891271" lon="0.776817">
        <ele>1578.3</ele>
        <time>2018-11-03T12:29:18Z</time>
      </trkpt>
      <trkpt lat="42.891330" lon="0.776893">
        <ele>1583.7</ele>
        <time>2018-11-03T12:30:05Z</time>
      </trkpt>
      <trkpt lat="42.891421" lon="0.776921">
        <ele>1589.1</ele>
        <time>2018-11-03T12:30:38Z</time>
      </trkpt>
      <trkpt lat="42.891514" lon="0.776940">
        <ele>1594.7</ele>
        <time>2018-11-03T12:31:11Z</time>
      </trkpt>
      <trkpt lat="42.891606" lon="0.776956">
        <ele>1600.4</ele>
        <time>2018-11-03T12:33:03Z</time>
      </trkpt>
      <trkpt lat="42.891691" lon="0.776970">
        <ele>1605.4</ele>
        <time>2018-11-03T12:33:29Z</time>
      </trkpt>
      <trkpt lat="42.891794" lon="0.776957">
        <ele>1612.5</ele>
        <time>2018-11-03T12:34:20Z</time>
      </trkpt>
      <trkpt lat="42.891899" lon="0.776957">
        <ele>1618.3</ele>
        <time>2018-11-03T12:35:03Z</time>
      </trkpt>
      <trkpt lat="42.891987" lon="0.776963">
        <ele>1624.0</ele>
        <time>2018-11-03T12:35:35Z</time>
      </trkpt>
      <trkpt lat="42.892063" lon="0.776977">
        <ele>1629.4</ele>
        <time>2018-11-03T12:36:09Z</time>
      </trkpt>
      <trkpt lat="42.892150" lon="0.776959">
        <ele>1637.7</ele>
        <time>2018-11-03T12:37:02Z</time>
      </trkpt>
      <trkpt lat="42.892241" lon="0.776972">
        <ele>1643.0</ele>
        <time>2018-11-03T12:37:41Z</time>
      </trkpt>
      <trkpt lat="42.892319" lon="0.776998">
        <ele>1647.4</ele>
        <time>2018-11-03T12:38:24Z</time>
      </trkpt>
      <trkpt lat="42.892421" lon="0.776992">
        <ele>1654.4</ele>
        <time>2018-11-03T12:39:16Z</time>
      </trkpt>
      <trkpt lat="42.892495" lon="0.776988">
        <ele>1658.7</ele>
        <time>2018-11-03T12:39:43Z</time>
      </trkpt>
      <trkpt lat="42.892582" lon="0.776978">
        <ele>1667.2</ele>
        <time>2018-11-03T12:40:42Z</time>
      </trkpt>
      <trkpt lat="42.892676" lon="0.777044">
        <ele>1674.8</ele>
        <time>2018-11-03T12:42:06Z</time>
      </trkpt>
      <trkpt lat="42.892742" lon="0.777029">
        <ele>1679.1</ele>
        <time>2018-11-03T12:42:47Z</time>
      </trkpt>
      <trkpt lat="42.892856" lon="0.777094">
        <ele>1687.2</ele>
        <time>2018-11-03T12:43:40Z</time>
      </trkpt>
      <trkpt lat="42.892968" lon="0.777076">
        <ele>1698.0</ele>
        <time>2018-11-03T12:46:14Z</time>
      </trkpt>
      <trkpt lat="42.893039" lon="0.777040">
        <ele>1703.3</ele>
        <time>2018-11-03T12:46:46Z</time>
      </trkpt>
      <trkpt lat="42.893100" lon="0.777071">
        <ele>1708.1</ele>
        <time>2018-11-03T12:48:12Z</time>
      </trkpt>
      <trkpt lat="42.893181" lon="0.777088">
        <ele>1714.0</ele>
        <time>2018-11-03T12:48:41Z</time>
      </trkpt>
      <trkpt lat="42.893269" lon="0.777091">
        <ele>1719.0</ele>
        <time>2018-11-03T12:49:08Z</time>
      </trkpt>
      <trkpt lat="42.893352" lon="0.777098">
        <ele>1724.4</ele>
        <time>2018-11-03T12:49:42Z</time>
      </trkpt>
      <trkpt lat="42.893433" lon="0.777113">
        <ele>1728.9</ele>
        <time>2018-11-03T12:50:14Z</time>
      </trkpt>
      <trkpt lat="42.893514" lon="0.777143">
        <ele>1734.1</ele>
        <time>2018-11-03T12:50:53Z</time>
      </trkpt>
      <trkpt lat="42.893600" lon="0.777169">
        <ele>1737.8</ele>
        <time>2018-11-03T12:51:21Z</time>
      </trkpt>
      <trkpt lat="42.893693" lon="0.777181">
        <ele>1742.8</ele>
        <time>2018-11-03T12:52:01Z</time>
      </trkpt>
      <trkpt lat="42.893779" lon="0.777225">
        <ele>1746.7</ele>
        <time>2018-11-03T12:52:48Z</time>
      </trkpt>
      <trkpt lat="42.893864" lon="0.777248">
        <ele>1749.7</ele>
        <time>2018-11-03T12:53:13Z</time>
      </trkpt>
      <trkpt lat="42.893958" lon="0.777275">
        <ele>1755.5</ele>
        <time>2018-11-03T12:54:02Z</time>
      </trkpt>
      <trkpt lat="42.894030" lon="0.777260">
        <ele>1757.9</ele>
        <time>2018-11-03T12:54:21Z</time>
      </trkpt>
      <trkpt lat="42.894116" lon="0.777245">
        <ele>1762.2</ele>
        <time>2018-11-03T12:54:55Z</time>
      </trkpt>
      <trkpt lat="42.894205" lon="0.777294">
        <ele>1768.2</ele>
        <time>2018-11-03T12:55:33Z</time>
      </trkpt>
      <trkpt lat="42.894284" lon="0.777324">
        <ele>1772.1</ele>
        <time>2018-11-03T12:56:02Z</time>
      </trkpt>
      <trkpt lat="42.894350" lon="0.777386">
        <ele>1776.0</ele>
        <time>2018-11-03T12:56:27Z</time>
      </trkpt>
      <trkpt lat="42.894439" lon="0.777412">
        <ele>1780.2</ele>
        <time>2018-11-03T12:56:53Z</time>
      </trkpt>
      <trkpt lat="42.894534" lon="0.777437">
        <ele>1783.6</ele>
        <time>2018-11-03T12:57:09Z</time>
      </trkpt>
      <trkpt lat="42.894623" lon="0.777465">
        <ele>1787.1</ele>
        <time>2018-11-03T12:57:26Z</time>
      </trkpt>
      <trkpt lat="42.894707" lon="0.777505">
        <ele>1788.6</ele>
        <time>2018-11-03T12:57:41Z</time>
      </trkpt>
      <trkpt lat="42.894787" lon="0.777520">
        <ele>1789.3</ele>
        <time>2018-11-03T12:57:53Z</time>
      </trkpt>
      <trkpt lat="42.894851" lon="0.777482">
        <ele>1789.9</ele>
        <time>2018-11-03T13:01:09Z</time>
      </trkpt>
      <trkpt lat="42.894904" lon="0.777369">
        <ele>1789.9</ele>
        <time>2018-11-03T13:02:06Z</time>
        <name>Mont Sijol</name>
      </trkpt>
      <trkpt lat="42.894911" lon="0.777244">
        <ele>1789.7</ele>
        <time>2018-11-03T13:02:16Z</time>
      </trkpt>
      <trkpt lat="42.894916" lon="0.777125">
        <ele>1788.8</ele>
        <time>2018-11-03T13:02:31Z</time>
      </trkpt>
      <trkpt lat="42.894920" lon="0.776996">
        <ele>1787.4</ele>
        <time>2018-11-03T13:02:49Z</time>
      </trkpt>
      <trkpt lat="42.894932" lon="0.776868">
        <ele>1785.7</ele>
        <time>2018-11-03T13:03:02Z</time>
      </trkpt>
      <trkpt lat="42.894973" lon="0.776750">
        <ele>1783.6</ele>
        <time>2018-11-03T13:03:15Z</time>
      </trkpt>
      <trkpt lat="42.895020" lon="0.776650">
        <ele>1782.2</ele>
        <time>2018-11-03T13:03:39Z</time>
      </trkpt>
      <trkpt lat="42.895054" lon="0.776535">
        <ele>1780.9</ele>
        <time>2018-11-03T13:03:52Z</time>
      </trkpt>
      <trkpt lat="42.895077" lon="0.776415">
        <ele>1780.2</ele>
        <time>2018-11-03T13:04:04Z</time>
      </trkpt>
      <trkpt lat="42.895118" lon="0.776297">
        <ele>1779.4</ele>
        <time>2018-11-03T13:04:16Z</time>
      </trkpt>
      <trkpt lat="42.895156" lon="0.776183">
        <ele>1778.4</ele>
        <time>2018-11-03T13:04:28Z</time>
      </trkpt>
      <trkpt lat="42.895220" lon="0.776085">
        <ele>1778.1</ele>
        <time>2018-11-03T13:04:52Z</time>
      </trkpt>
      <trkpt lat="42.895262" lon="0.775981">
        <ele>1778.4</ele>
        <time>2018-11-03T13:05:03Z</time>
      </trkpt>
      <trkpt lat="42.895303" lon="0.775869">
        <ele>1778.3</ele>
        <time>2018-11-03T13:05:16Z</time>
      </trkpt>
      <trkpt lat="42.895330" lon="0.775766">
        <ele>1779.0</ele>
        <time>2018-11-03T13:05:30Z</time>
      </trkpt>
      <trkpt lat="42.895383" lon="0.775666">
        <ele>1779.9</ele>
        <time>2018-11-03T13:05:44Z</time>
      </trkpt>
      <trkpt lat="42.895435" lon="0.775576">
        <ele>1781.0</ele>
        <time>2018-11-03T13:05:58Z</time>
      </trkpt>
      <trkpt lat="42.895482" lon="0.775472">
        <ele>1782.4</ele>
        <time>2018-11-03T13:06:13Z</time>
      </trkpt>
      <trkpt lat="42.895543" lon="0.775383">
        <ele>1784.1</ele>
        <time>2018-11-03T13:06:26Z</time>
      </trkpt>
      <trkpt lat="42.895627" lon="0.775311">
        <ele>1785.0</ele>
        <time>2018-11-03T13:06:38Z</time>
      </trkpt>
      <trkpt lat="42.895707" lon="0.775233">
        <ele>1784.8</ele>
        <time>2018-11-03T13:06:48Z</time>
      </trkpt>
      <trkpt lat="42.895793" lon="0.775175">
        <ele>1784.3</ele>
        <time>2018-11-03T13:07:06Z</time>
      </trkpt>
      <trkpt lat="42.895863" lon="0.775090">
        <ele>1784.4</ele>
        <time>2018-11-03T13:07:17Z</time>
      </trkpt>
      <trkpt lat="42.895938" lon="0.775006">
        <ele>1785.3</ele>
        <time>2018-11-03T13:07:28Z</time>
      </trkpt>
      <trkpt lat="42.896019" lon="0.774936">
        <ele>1785.2</ele>
        <time>2018-11-03T13:07:39Z</time>
      </trkpt>
      <trkpt lat="42.896083" lon="0.774842">
        <ele>1784.4</ele>
        <time>2018-11-03T13:07:50Z</time>
      </trkpt>
      <trkpt lat="42.896157" lon="0.774776">
        <ele>1784.0</ele>
        <time>2018-11-03T13:08:00Z</time>
      </trkpt>
      <trkpt lat="42.896237" lon="0.774712">
        <ele>1783.7</ele>
        <time>2018-11-03T13:08:11Z</time>
      </trkpt>
      <trkpt lat="42.896294" lon="0.774670">
        <ele>1783.2</ele>
        <time>2018-11-03T13:08:31Z</time>
      </trkpt>
      <trkpt lat="42.896377" lon="0.774611">
        <ele>1782.5</ele>
        <time>2018-11-03T13:08:42Z</time>
      </trkpt>
      <trkpt lat="42.896435" lon="0.774525">
        <ele>1781.5</ele>
        <time>2018-11-03T13:08:55Z</time>
      </trkpt>
      <trkpt lat="42.896487" lon="0.774498">
        <ele>1778.7</ele>
        <time>2018-11-03T13:09:09Z</time>
      </trkpt>
      <trkpt lat="42.896568" lon="0.774452">
        <ele>1775.2</ele>
        <time>2018-11-03T13:09:47Z</time>
      </trkpt>
      <trkpt lat="42.896650" lon="0.774401">
        <ele>1773.4</ele>
        <time>2018-11-03T13:09:59Z</time>
      </trkpt>
      <trkpt lat="42.896679" lon="0.774383">
        <ele>1771.4</ele>
        <time>2018-11-03T13:10:35Z</time>
      </trkpt>
      <trkpt lat="42.896787" lon="0.774352">
        <ele>1770.4</ele>
        <time>2018-11-03T13:10:47Z</time>
      </trkpt>
      <trkpt lat="42.896902" lon="0.774333">
        <ele>1768.4</ele>
        <time>2018-11-03T13:11:00Z</time>
      </trkpt>
      <trkpt lat="42.896994" lon="0.774281">
        <ele>1767.8</ele>
        <time>2018-11-03T13:11:11Z</time>
      </trkpt>
      <trkpt lat="42.897086" lon="0.774232">
        <ele>1767.2</ele>
        <time>2018-11-03T13:11:23Z</time>
      </trkpt>
      <trkpt lat="42.897188" lon="0.774242">
        <ele>1767.5</ele>
        <time>2018-11-03T13:11:37Z</time>
      </trkpt>
      <trkpt lat="42.897287" lon="0.774258">
        <ele>1768.9</ele>
        <time>2018-11-03T13:11:52Z</time>
      </trkpt>
      <trkpt lat="42.897377" lon="0.774262">
        <ele>1769.7</ele>
        <time>2018-11-03T13:12:08Z</time>
      </trkpt>
      <trkpt lat="42.897466" lon="0.774230">
        <ele>1769.8</ele>
        <time>2018-11-03T13:12:24Z</time>
      </trkpt>
      <trkpt lat="42.897516" lon="0.774159">
        <ele>1770.8</ele>
        <time>2018-11-03T13:12:45Z</time>
      </trkpt>
      <trkpt lat="42.897596" lon="0.774081">
        <ele>1771.5</ele>
        <time>2018-11-03T13:13:07Z</time>
      </trkpt>
      <trkpt lat="42.897652" lon="0.774013">
        <ele>1772.1</ele>
        <time>2018-11-03T13:13:40Z</time>
      </trkpt>
      <trkpt lat="42.897727" lon="0.773946">
        <ele>1772.6</ele>
        <time>2018-11-03T13:14:01Z</time>
      </trkpt>
      <trkpt lat="42.897819" lon="0.773906">
        <ele>1772.8</ele>
        <time>2018-11-03T13:14:16Z</time>
      </trkpt>
      <trkpt lat="42.897916" lon="0.773888">
        <ele>1773.5</ele>
        <time>2018-11-03T13:14:29Z</time>
      </trkpt>
      <trkpt lat="42.897995" lon="0.773839">
        <ele>1773.4</ele>
        <time>2018-11-03T13:14:43Z</time>
      </trkpt>
      <trkpt lat="42.898096" lon="0.773846">
        <ele>1773.5</ele>
        <time>2018-11-03T13:14:56Z</time>
      </trkpt>
      <trkpt lat="42.898194" lon="0.773848">
        <ele>1774.1</ele>
        <time>2018-11-03T13:15:09Z</time>
      </trkpt>
      <trkpt lat="42.898283" lon="0.773863">
        <ele>1774.3</ele>
        <time>2018-11-03T13:15:34Z</time>
      </trkpt>
      <trkpt lat="42.898387" lon="0.773893">
        <ele>1774.0</ele>
        <time>2018-11-03T13:15:47Z</time>
      </trkpt>
      <trkpt lat="42.898481" lon="0.773894">
        <ele>1774.1</ele>
        <time>2018-11-03T13:15:58Z</time>
      </trkpt>
      <trkpt lat="42.898574" lon="0.773876">
        <ele>1773.9</ele>
        <time>2018-11-03T13:16:10Z</time>
      </trkpt>
      <trkpt lat="42.898668" lon="0.773852">
        <ele>1773.9</ele>
        <time>2018-11-03T13:16:23Z</time>
      </trkpt>
      <trkpt lat="42.898760" lon="0.773846">
        <ele>1774.7</ele>
        <time>2018-11-03T13:16:38Z</time>
      </trkpt>
      <trkpt lat="42.898851" lon="0.773813">
        <ele>1775.2</ele>
        <time>2018-11-03T13:16:54Z</time>
      </trkpt>
      <trkpt lat="42.898946" lon="0.773780">
        <ele>1776.0</ele>
        <time>2018-11-03T13:17:13Z</time>
      </trkpt>
      <trkpt lat="42.899044" lon="0.773738">
        <ele>1775.7</ele>
        <time>2018-11-03T13:17:28Z</time>
      </trkpt>
      <trkpt lat="42.899136" lon="0.773703">
        <ele>1775.5</ele>
        <time>2018-11-03T13:17:42Z</time>
      </trkpt>
      <trkpt lat="42.899238" lon="0.773660">
        <ele>1775.7</ele>
        <time>2018-11-03T13:18:09Z</time>
      </trkpt>
      <trkpt lat="42.899337" lon="0.773609">
        <ele>1776.3</ele>
        <time>2018-11-03T13:18:23Z</time>
      </trkpt>
      <trkpt lat="42.899423" lon="0.773543">
        <ele>1775.9</ele>
        <time>2018-11-03T13:18:38Z</time>
      </trkpt>
      <trkpt lat="42.899513" lon="0.773472">
        <ele>1775.7</ele>
        <time>2018-11-03T13:18:54Z</time>
      </trkpt>
      <trkpt lat="42.899590" lon="0.773400">
        <ele>1776.0</ele>
        <time>2018-11-03T13:19:07Z</time>
      </trkpt>
      <trkpt lat="42.899667" lon="0.773347">
        <ele>1776.0</ele>
        <time>2018-11-03T13:19:26Z</time>
      </trkpt>
      <trkpt lat="42.899739" lon="0.773265">
        <ele>1776.7</ele>
        <time>2018-11-03T13:19:42Z</time>
      </trkpt>
      <trkpt lat="42.899807" lon="0.773182">
        <ele>1776.7</ele>
        <time>2018-11-03T13:19:55Z</time>
      </trkpt>
      <trkpt lat="42.899892" lon="0.773115">
        <ele>1777.3</ele>
        <time>2018-11-03T13:20:09Z</time>
      </trkpt>
      <trkpt lat="42.899968" lon="0.773043">
        <ele>1777.8</ele>
        <time>2018-11-03T13:20:25Z</time>
      </trkpt>
      <trkpt lat="42.900019" lon="0.772928">
        <ele>1778.0</ele>
        <time>2018-11-03T13:20:39Z</time>
      </trkpt>
      <trkpt lat="42.900079" lon="0.772829">
        <ele>1778.0</ele>
        <time>2018-11-03T13:20:53Z</time>
      </trkpt>
      <trkpt lat="42.900137" lon="0.772717">
        <ele>1778.3</ele>
        <time>2018-11-03T13:21:08Z</time>
      </trkpt>
      <trkpt lat="42.900199" lon="0.772607">
        <ele>1778.8</ele>
        <time>2018-11-03T13:21:25Z</time>
      </trkpt>
      <trkpt lat="42.900244" lon="0.772491">
        <ele>1779.5</ele>
        <time>2018-11-03T13:21:38Z</time>
      </trkpt>
      <trkpt lat="42.900274" lon="0.772365">
        <ele>1778.8</ele>
        <time>2018-11-03T13:21:51Z</time>
      </trkpt>
      <trkpt lat="42.900319" lon="0.772258">
        <ele>1779.1</ele>
        <time>2018-11-03T13:22:02Z</time>
      </trkpt>
      <trkpt lat="42.900358" lon="0.772143">
        <ele>1779.2</ele>
        <time>2018-11-03T13:22:13Z</time>
      </trkpt>
      <trkpt lat="42.900406" lon="0.772024">
        <ele>1779.2</ele>
        <time>2018-11-03T13:22:24Z</time>
      </trkpt>
      <trkpt lat="42.900449" lon="0.771902">
        <ele>1778.8</ele>
        <time>2018-11-03T13:22:34Z</time>
      </trkpt>
      <trkpt lat="42.900490" lon="0.771792">
        <ele>1778.2</ele>
        <time>2018-11-03T13:22:45Z</time>
      </trkpt>
      <trkpt lat="42.900545" lon="0.771677">
        <ele>1777.0</ele>
        <time>2018-11-03T13:22:57Z</time>
      </trkpt>
      <trkpt lat="42.900605" lon="0.771577">
        <ele>1776.5</ele>
        <time>2018-11-03T13:23:07Z</time>
      </trkpt>
      <trkpt lat="42.900668" lon="0.771477">
        <ele>1776.0</ele>
        <time>2018-11-03T13:23:18Z</time>
      </trkpt>
      <trkpt lat="42.900741" lon="0.771392">
        <ele>1774.9</ele>
        <time>2018-11-03T13:23:29Z</time>
      </trkpt>
      <trkpt lat="42.900804" lon="0.771295">
        <ele>1774.0</ele>
        <time>2018-11-03T13:23:41Z</time>
      </trkpt>
      <trkpt lat="42.900859" lon="0.771195">
        <ele>1772.9</ele>
        <time>2018-11-03T13:23:53Z</time>
      </trkpt>
      <trkpt lat="42.900901" lon="0.771086">
        <ele>1772.9</ele>
        <time>2018-11-03T13:24:03Z</time>
      </trkpt>
      <trkpt lat="42.900966" lon="0.770988">
        <ele>1773.6</ele>
        <time>2018-11-03T13:24:15Z</time>
      </trkpt>
      <trkpt lat="42.901006" lon="0.770872">
        <ele>1773.0</ele>
        <time>2018-11-03T13:24:27Z</time>
      </trkpt>
      <trkpt lat="42.901036" lon="0.770744">
        <ele>1772.0</ele>
        <time>2018-11-03T13:24:38Z</time>
      </trkpt>
      <trkpt lat="42.901063" lon="0.770621">
        <ele>1771.7</ele>
        <time>2018-11-03T13:24:49Z</time>
      </trkpt>
      <trkpt lat="42.901097" lon="0.770507">
        <ele>1770.9</ele>
        <time>2018-11-03T13:25:06Z</time>
      </trkpt>
      <trkpt lat="42.901149" lon="0.770400">
        <ele>1770.1</ele>
        <time>2018-11-03T13:25:17Z</time>
      </trkpt>
      <trkpt lat="42.901211" lon="0.770297">
        <ele>1770.0</ele>
        <time>2018-11-03T13:25:29Z</time>
      </trkpt>
      <trkpt lat="42.901245" lon="0.770167">
        <ele>1770.6</ele>
        <time>2018-11-03T13:25:51Z</time>
      </trkpt>
      <trkpt lat="42.901280" lon="0.770055">
        <ele>1771.1</ele>
        <time>2018-11-03T13:26:03Z</time>
      </trkpt>
      <trkpt lat="42.901348" lon="0.769964">
        <ele>1772.1</ele>
        <time>2018-11-03T13:26:16Z</time>
      </trkpt>
      <trkpt lat="42.901399" lon="0.769858">
        <ele>1772.7</ele>
        <time>2018-11-03T13:26:28Z</time>
      </trkpt>
      <trkpt lat="42.901453" lon="0.769748">
        <ele>1773.4</ele>
        <time>2018-11-03T13:26:40Z</time>
      </trkpt>
      <trkpt lat="42.901533" lon="0.769689">
        <ele>1774.5</ele>
        <time>2018-11-03T13:26:53Z</time>
      </trkpt>
      <trkpt lat="42.901607" lon="0.769608">
        <ele>1774.7</ele>
        <time>2018-11-03T13:27:06Z</time>
      </trkpt>
      <trkpt lat="42.901650" lon="0.769498">
        <ele>1775.3</ele>
        <time>2018-11-03T13:27:18Z</time>
      </trkpt>
      <trkpt lat="42.901692" lon="0.769396">
        <ele>1775.7</ele>
        <time>2018-11-03T13:27:29Z</time>
      </trkpt>
      <trkpt lat="42.901761" lon="0.769297">
        <ele>1776.3</ele>
        <time>2018-11-03T13:27:42Z</time>
      </trkpt>
      <trkpt lat="42.901813" lon="0.769184">
        <ele>1776.6</ele>
        <time>2018-11-03T13:27:53Z</time>
      </trkpt>
      <trkpt lat="42.901852" lon="0.769075">
        <ele>1777.3</ele>
        <time>2018-11-03T13:28:06Z</time>
      </trkpt>
      <trkpt lat="42.901896" lon="0.768932">
        <ele>1778.7</ele>
        <time>2018-11-03T13:28:22Z</time>
      </trkpt>
      <trkpt lat="42.901943" lon="0.768823">
        <ele>1780.5</ele>
        <time>2018-11-03T13:28:38Z</time>
      </trkpt>
      <trkpt lat="42.901985" lon="0.768708">
        <ele>1782.5</ele>
        <time>2018-11-03T13:28:54Z</time>
      </trkpt>
      <trkpt lat="42.902058" lon="0.768614">
        <ele>1784.5</ele>
        <time>2018-11-03T13:29:13Z</time>
      </trkpt>
      <trkpt lat="42.902125" lon="0.768523">
        <ele>1786.6</ele>
        <time>2018-11-03T13:29:33Z</time>
      </trkpt>
      <trkpt lat="42.902182" lon="0.768425">
        <ele>1788.7</ele>
        <time>2018-11-03T13:29:48Z</time>
      </trkpt>
      <trkpt lat="42.902224" lon="0.768317">
        <ele>1790.4</ele>
        <time>2018-11-03T13:30:01Z</time>
      </trkpt>
      <trkpt lat="42.902253" lon="0.768181">
        <ele>1792.4</ele>
        <time>2018-11-03T13:30:14Z</time>
      </trkpt>
      <trkpt lat="42.902278" lon="0.768020">
        <ele>1794.5</ele>
        <time>2018-11-03T13:30:27Z</time>
      </trkpt>
      <trkpt lat="42.902286" lon="0.767856">
        <ele>1796.3</ele>
        <time>2018-11-03T13:30:42Z</time>
      </trkpt>
      <trkpt lat="42.902277" lon="0.767715">
        <ele>1796.9</ele>
        <time>2018-11-03T13:30:54Z</time>
      </trkpt>
      <trkpt lat="42.902272" lon="0.767569">
        <ele>1797.7</ele>
        <time>2018-11-03T13:31:05Z</time>
      </trkpt>
      <trkpt lat="42.902265" lon="0.767429">
        <ele>1798.1</ele>
        <time>2018-11-03T13:31:16Z</time>
      </trkpt>
      <trkpt lat="42.902255" lon="0.767309">
        <ele>1799.4</ele>
        <time>2018-11-03T13:31:42Z</time>
      </trkpt>
      <trkpt lat="42.902236" lon="0.767170">
        <ele>1800.3</ele>
        <time>2018-11-03T13:31:57Z</time>
      </trkpt>
      <trkpt lat="42.902207" lon="0.767026">
        <ele>1801.6</ele>
        <time>2018-11-03T13:32:14Z</time>
      </trkpt>
      <trkpt lat="42.902180" lon="0.766884">
        <ele>1802.8</ele>
        <time>2018-11-03T13:32:29Z</time>
      </trkpt>
      <trkpt lat="42.902164" lon="0.766745">
        <ele>1804.2</ele>
        <time>2018-11-03T13:32:46Z</time>
      </trkpt>
      <trkpt lat="42.902157" lon="0.766611">
        <ele>1806.0</ele>
        <time>2018-11-03T13:33:01Z</time>
      </trkpt>
      <trkpt lat="42.902152" lon="0.766469">
        <ele>1807.4</ele>
        <time>2018-11-03T13:33:16Z</time>
      </trkpt>
      <trkpt lat="42.902170" lon="0.766351">
        <ele>1808.9</ele>
        <time>2018-11-03T13:34:11Z</time>
      </trkpt>
      <trkpt lat="42.902147" lon="0.766201">
        <ele>1809.0</ele>
        <time>2018-11-03T13:34:24Z</time>
      </trkpt>
      <trkpt lat="42.902130" lon="0.766085">
        <ele>1809.6</ele>
        <time>2018-11-03T13:34:37Z</time>
      </trkpt>
      <trkpt lat="42.902066" lon="0.766001">
        <ele>1810.6</ele>
        <time>2018-11-03T13:34:53Z</time>
      </trkpt>
      <trkpt lat="42.901994" lon="0.765952">
        <ele>1812.5</ele>
        <time>2018-11-03T13:35:31Z</time>
      </trkpt>
      <trkpt lat="42.901963" lon="0.765949">
        <ele>1815.5</ele>
        <time>2018-11-03T14:03:07Z</time>
      </trkpt>
      <trkpt lat="42.901980" lon="0.765847">
        <ele>1816.8</ele>
        <time>2018-11-03T14:07:58Z</time>
        <name>Tuc de Etang</name>
      </trkpt>
      <trkpt lat="42.902002" lon="0.765713">
        <ele>1814.9</ele>
        <time>2018-11-03T14:08:09Z</time>
      </trkpt>
      <trkpt lat="42.902021" lon="0.765571">
        <ele>1812.9</ele>
        <time>2018-11-03T14:08:20Z</time>
      </trkpt>
      <trkpt lat="42.902019" lon="0.765438">
        <ele>1811.8</ele>
        <time>2018-11-03T14:08:37Z</time>
      </trkpt>
      <trkpt lat="42.902022" lon="0.765297">
        <ele>1810.7</ele>
        <time>2018-11-03T14:08:47Z</time>
      </trkpt>
      <trkpt lat="42.902002" lon="0.765166">
        <ele>1808.7</ele>
        <time>2018-11-03T14:08:58Z</time>
      </trkpt>
      <trkpt lat="42.901961" lon="0.765046">
        <ele>1806.4</ele>
        <time>2018-11-03T14:09:10Z</time>
      </trkpt>
      <trkpt lat="42.901953" lon="0.764896">
        <ele>1804.1</ele>
        <time>2018-11-03T14:09:32Z</time>
      </trkpt>
      <trkpt lat="42.901938" lon="0.764770">
        <ele>1801.6</ele>
        <time>2018-11-03T14:09:44Z</time>
      </trkpt>
      <trkpt lat="42.901938" lon="0.764647">
        <ele>1799.1</ele>
        <time>2018-11-03T14:10:18Z</time>
      </trkpt>
      <trkpt lat="42.901937" lon="0.764511">
        <ele>1796.1</ele>
        <time>2018-11-03T14:10:34Z</time>
      </trkpt>
      <trkpt lat="42.901928" lon="0.764375">
        <ele>1792.8</ele>
        <time>2018-11-03T14:10:51Z</time>
      </trkpt>
      <trkpt lat="42.901903" lon="0.764262">
        <ele>1789.8</ele>
        <time>2018-11-03T14:11:05Z</time>
      </trkpt>
      <trkpt lat="42.901892" lon="0.764129">
        <ele>1786.0</ele>
        <time>2018-11-03T14:11:19Z</time>
      </trkpt>
      <trkpt lat="42.901878" lon="0.764002">
        <ele>1782.3</ele>
        <time>2018-11-03T14:11:37Z</time>
      </trkpt>
      <trkpt lat="42.901855" lon="0.763884">
        <ele>1780.0</ele>
        <time>2018-11-03T14:11:49Z</time>
      </trkpt>
      <trkpt lat="42.901848" lon="0.763757">
        <ele>1778.2</ele>
        <time>2018-11-03T14:12:01Z</time>
      </trkpt>
      <trkpt lat="42.901823" lon="0.763631">
        <ele>1775.9</ele>
        <time>2018-11-03T14:12:12Z</time>
      </trkpt>
      <trkpt lat="42.901780" lon="0.763505">
        <ele>1773.4</ele>
        <time>2018-11-03T14:12:23Z</time>
      </trkpt>
      <trkpt lat="42.901774" lon="0.763383">
        <ele>1772.1</ele>
        <time>2018-11-03T14:12:33Z</time>
      </trkpt>
      <trkpt lat="42.901777" lon="0.763258">
        <ele>1770.4</ele>
        <time>2018-11-03T14:12:45Z</time>
      </trkpt>
      <trkpt lat="42.901764" lon="0.763117">
        <ele>1768.4</ele>
        <time>2018-11-03T14:13:02Z</time>
      </trkpt>
      <trkpt lat="42.901765" lon="0.762978">
        <ele>1768.6</ele>
        <time>2018-11-03T14:13:13Z</time>
      </trkpt>
      <trkpt lat="42.901739" lon="0.762841">
        <ele>1769.5</ele>
        <time>2018-11-03T14:13:25Z</time>
      </trkpt>
      <trkpt lat="42.901713" lon="0.762734">
        <ele>1771.2</ele>
        <time>2018-11-03T14:13:43Z</time>
      </trkpt>
      <trkpt lat="42.901659" lon="0.762655">
        <ele>1769.1</ele>
        <time>2018-11-03T14:14:00Z</time>
      </trkpt>
      <trkpt lat="42.901629" lon="0.762525">
        <ele>1769.2</ele>
        <time>2018-11-03T14:14:10Z</time>
      </trkpt>
      <trkpt lat="42.901597" lon="0.762396">
        <ele>1770.3</ele>
        <time>2018-11-03T14:14:24Z</time>
      </trkpt>
      <trkpt lat="42.901521" lon="0.762257">
        <ele>1771.2</ele>
        <time>2018-11-03T14:14:37Z</time>
      </trkpt>
      <trkpt lat="42.901482" lon="0.762142">
        <ele>1771.9</ele>
        <time>2018-11-03T14:14:49Z</time>
      </trkpt>
      <trkpt lat="42.901466" lon="0.762025">
        <ele>1772.8</ele>
        <time>2018-11-03T14:15:05Z</time>
      </trkpt>
      <trkpt lat="42.901459" lon="0.761888">
        <ele>1774.2</ele>
        <time>2018-11-03T14:15:18Z</time>
      </trkpt>
      <trkpt lat="42.901457" lon="0.761756">
        <ele>1776.0</ele>
        <time>2018-11-03T14:15:32Z</time>
      </trkpt>
      <trkpt lat="42.901443" lon="0.761626">
        <ele>1777.4</ele>
        <time>2018-11-03T14:15:49Z</time>
      </trkpt>
      <trkpt lat="42.901463" lon="0.761500">
        <ele>1779.6</ele>
        <time>2018-11-03T14:16:03Z</time>
      </trkpt>
      <trkpt lat="42.901443" lon="0.761372">
        <ele>1779.6</ele>
        <time>2018-11-03T14:16:25Z</time>
      </trkpt>
      <trkpt lat="42.901389" lon="0.761260">
        <ele>1779.4</ele>
        <time>2018-11-03T14:16:36Z</time>
      </trkpt>
      <trkpt lat="42.901312" lon="0.761159">
        <ele>1778.8</ele>
        <time>2018-11-03T14:16:48Z</time>
      </trkpt>
      <trkpt lat="42.901243" lon="0.761061">
        <ele>1778.8</ele>
        <time>2018-11-03T14:17:00Z</time>
      </trkpt>
      <trkpt lat="42.901189" lon="0.760960">
        <ele>1778.7</ele>
        <time>2018-11-03T14:17:11Z</time>
      </trkpt>
      <trkpt lat="42.901122" lon="0.760855">
        <ele>1778.7</ele>
        <time>2018-11-03T14:17:23Z</time>
      </trkpt>
      <trkpt lat="42.901047" lon="0.760772">
        <ele>1778.1</ele>
        <time>2018-11-03T14:17:38Z</time>
      </trkpt>
      <trkpt lat="42.900964" lon="0.760712">
        <ele>1778.1</ele>
        <time>2018-11-03T14:17:52Z</time>
      </trkpt>
      <trkpt lat="42.900881" lon="0.760695">
        <ele>1780.0</ele>
        <time>2018-11-03T14:18:07Z</time>
      </trkpt>
      <trkpt lat="42.900880" lon="0.760698">
        <ele>1780.2</ele>
        <time>2018-11-03T14:20:56Z</time>
      </trkpt>
      <trkpt lat="42.900876" lon="0.760570">
        <ele>1779.3</ele>
        <time>2018-11-03T14:21:03Z</time>
      </trkpt>
      <trkpt lat="42.900865" lon="0.760438">
        <ele>1776.2</ele>
        <time>2018-11-03T14:21:15Z</time>
      </trkpt>
      <trkpt lat="42.900878" lon="0.760308">
        <ele>1773.9</ele>
        <time>2018-11-03T14:21:24Z</time>
      </trkpt>
      <trkpt lat="42.900880" lon="0.760172">
        <ele>1770.4</ele>
        <time>2018-11-03T14:21:34Z</time>
      </trkpt>
      <trkpt lat="42.900851" lon="0.760061">
        <ele>1765.3</ele>
        <time>2018-11-03T14:21:52Z</time>
      </trkpt>
      <trkpt lat="42.900815" lon="0.759934">
        <ele>1762.2</ele>
        <time>2018-11-03T14:22:06Z</time>
      </trkpt>
      <trkpt lat="42.900771" lon="0.759822">
        <ele>1758.6</ele>
        <time>2018-11-03T14:22:21Z</time>
      </trkpt>
      <trkpt lat="42.900724" lon="0.759712">
        <ele>1755.5</ele>
        <time>2018-11-03T14:22:35Z</time>
      </trkpt>
      <trkpt lat="42.900677" lon="0.759588">
        <ele>1752.6</ele>
        <time>2018-11-03T14:22:50Z</time>
      </trkpt>
      <trkpt lat="42.900642" lon="0.759455">
        <ele>1748.6</ele>
        <time>2018-11-03T14:23:08Z</time>
      </trkpt>
      <trkpt lat="42.900603" lon="0.759358">
        <ele>1744.2</ele>
        <time>2018-11-03T14:23:26Z</time>
      </trkpt>
      <trkpt lat="42.900539" lon="0.759245">
        <ele>1741.7</ele>
        <time>2018-11-03T14:23:40Z</time>
      </trkpt>
      <trkpt lat="42.900491" lon="0.759119">
        <ele>1738.6</ele>
        <time>2018-11-03T14:23:53Z</time>
      </trkpt>
      <trkpt lat="42.900436" lon="0.759015">
        <ele>1736.6</ele>
        <time>2018-11-03T14:24:06Z</time>
      </trkpt>
      <trkpt lat="42.900458" lon="0.758918">
        <ele>1734.7</ele>
        <time>2018-11-03T14:24:28Z</time>
      </trkpt>
      <trkpt lat="42.900459" lon="0.758787">
        <ele>1732.3</ele>
        <time>2018-11-03T14:24:42Z</time>
      </trkpt>
      <trkpt lat="42.900427" lon="0.758670">
        <ele>1729.2</ele>
        <time>2018-11-03T14:24:56Z</time>
      </trkpt>
      <trkpt lat="42.900394" lon="0.758546">
        <ele>1725.7</ele>
        <time>2018-11-03T14:25:12Z</time>
      </trkpt>
      <trkpt lat="42.900350" lon="0.758431">
        <ele>1721.6</ele>
        <time>2018-11-03T14:25:26Z</time>
      </trkpt>
      <trkpt lat="42.900300" lon="0.758319">
        <ele>1718.0</ele>
        <time>2018-11-03T14:25:40Z</time>
      </trkpt>
      <trkpt lat="42.900254" lon="0.758206">
        <ele>1713.8</ele>
        <time>2018-11-03T14:25:55Z</time>
      </trkpt>
      <trkpt lat="42.900194" lon="0.758101">
        <ele>1710.5</ele>
        <time>2018-11-03T14:26:08Z</time>
      </trkpt>
      <trkpt lat="42.900122" lon="0.758013">
        <ele>1707.3</ele>
        <time>2018-11-03T14:26:21Z</time>
      </trkpt>
      <trkpt lat="42.900053" lon="0.757932">
        <ele>1704.8</ele>
        <time>2018-11-03T14:26:32Z</time>
      </trkpt>
      <trkpt lat="42.899974" lon="0.757868">
        <ele>1702.7</ele>
        <time>2018-11-03T14:26:43Z</time>
      </trkpt>
      <trkpt lat="42.899906" lon="0.757781">
        <ele>1701.6</ele>
        <time>2018-11-03T14:26:55Z</time>
      </trkpt>
      <trkpt lat="42.899857" lon="0.757676">
        <ele>1700.3</ele>
        <time>2018-11-03T14:27:05Z</time>
      </trkpt>
      <trkpt lat="42.899793" lon="0.757584">
        <ele>1698.8</ele>
        <time>2018-11-03T14:27:16Z</time>
      </trkpt>
      <trkpt lat="42.899717" lon="0.757527">
        <ele>1697.9</ele>
        <time>2018-11-03T14:27:25Z</time>
      </trkpt>
      <trkpt lat="42.899655" lon="0.757424">
        <ele>1697.2</ele>
        <time>2018-11-03T14:27:34Z</time>
      </trkpt>
      <trkpt lat="42.899606" lon="0.757306">
        <ele>1697.0</ele>
        <time>2018-11-03T14:27:46Z</time>
      </trkpt>
      <trkpt lat="42.899554" lon="0.757184">
        <ele>1698.2</ele>
        <time>2018-11-03T14:28:01Z</time>
      </trkpt>
      <trkpt lat="42.899494" lon="0.757074">
        <ele>1698.7</ele>
        <time>2018-11-03T14:28:12Z</time>
      </trkpt>
      <trkpt lat="42.899427" lon="0.756991">
        <ele>1698.4</ele>
        <time>2018-11-03T14:28:24Z</time>
      </trkpt>
      <trkpt lat="42.899358" lon="0.756888">
        <ele>1698.1</ele>
        <time>2018-11-03T14:28:35Z</time>
      </trkpt>
      <trkpt lat="42.899295" lon="0.756793">
        <ele>1697.6</ele>
        <time>2018-11-03T14:28:45Z</time>
      </trkpt>
      <trkpt lat="42.899241" lon="0.756687">
        <ele>1697.6</ele>
        <time>2018-11-03T14:28:55Z</time>
      </trkpt>
      <trkpt lat="42.899199" lon="0.756568">
        <ele>1698.2</ele>
        <time>2018-11-03T14:29:07Z</time>
      </trkpt>
      <trkpt lat="42.899163" lon="0.756440">
        <ele>1700.2</ele>
        <time>2018-11-03T14:29:20Z</time>
      </trkpt>
      <trkpt lat="42.899144" lon="0.756301">
        <ele>1701.7</ele>
        <time>2018-11-03T14:29:37Z</time>
      </trkpt>
      <trkpt lat="42.899133" lon="0.756166">
        <ele>1703.2</ele>
        <time>2018-11-03T14:29:50Z</time>
      </trkpt>
      <trkpt lat="42.899093" lon="0.756026">
        <ele>1704.4</ele>
        <time>2018-11-03T14:30:04Z</time>
      </trkpt>
      <trkpt lat="42.899043" lon="0.755910">
        <ele>1706.4</ele>
        <time>2018-11-03T14:30:19Z</time>
      </trkpt>
      <trkpt lat="42.898964" lon="0.755861">
        <ele>1707.6</ele>
        <time>2018-11-03T14:30:31Z</time>
      </trkpt>
      <trkpt lat="42.898896" lon="0.755756">
        <ele>1708.7</ele>
        <time>2018-11-03T14:30:43Z</time>
      </trkpt>
      <trkpt lat="42.898854" lon="0.755643">
        <ele>1711.5</ele>
        <time>2018-11-03T14:30:57Z</time>
      </trkpt>
      <trkpt lat="42.898779" lon="0.755546">
        <ele>1713.8</ele>
        <time>2018-11-03T14:31:09Z</time>
      </trkpt>
      <trkpt lat="42.898712" lon="0.755449">
        <ele>1715.2</ele>
        <time>2018-11-03T14:31:20Z</time>
      </trkpt>
      <trkpt lat="42.898648" lon="0.755354">
        <ele>1716.6</ele>
        <time>2018-11-03T14:31:30Z</time>
      </trkpt>
      <trkpt lat="42.898588" lon="0.755253">
        <ele>1718.0</ele>
        <time>2018-11-03T14:31:41Z</time>
      </trkpt>
      <trkpt lat="42.898528" lon="0.755153">
        <ele>1719.4</ele>
        <time>2018-11-03T14:31:50Z</time>
      </trkpt>
      <trkpt lat="42.898473" lon="0.755041">
        <ele>1720.7</ele>
        <time>2018-11-03T14:32:00Z</time>
      </trkpt>
      <trkpt lat="42.898425" lon="0.754941">
        <ele>1722.6</ele>
        <time>2018-11-03T14:32:11Z</time>
      </trkpt>
      <trkpt lat="42.898369" lon="0.754825">
        <ele>1725.4</ele>
        <time>2018-11-03T14:32:24Z</time>
      </trkpt>
      <trkpt lat="42.898341" lon="0.754698">
        <ele>1727.9</ele>
        <time>2018-11-03T14:32:35Z</time>
        <name>Tuc de Pan</name>
      </trkpt>
      <trkpt lat="42.898325" lon="0.754574">
        <ele>1730.4</ele>
        <time>2018-11-03T14:32:49Z</time>
      </trkpt>
      <trkpt lat="42.898370" lon="0.754454">
        <ele>1732.0</ele>
        <time>2018-11-03T14:33:02Z</time>
      </trkpt>
      <trkpt lat="42.898440" lon="0.754311">
        <ele>1734.8</ele>
        <time>2018-11-03T14:40:12Z</time>
      </trkpt>
      <trkpt lat="42.898427" lon="0.754180">
        <ele>1734.2</ele>
        <time>2018-11-03T14:40:26Z</time>
      </trkpt>
      <trkpt lat="42.898462" lon="0.754074">
        <ele>1732.7</ele>
        <time>2018-11-03T14:40:36Z</time>
      </trkpt>
      <trkpt lat="42.898521" lon="0.753980">
        <ele>1730.7</ele>
        <time>2018-11-03T14:40:50Z</time>
      </trkpt>
      <trkpt lat="42.898564" lon="0.753861">
        <ele>1728.4</ele>
        <time>2018-11-03T14:41:03Z</time>
      </trkpt>
      <trkpt lat="42.898590" lon="0.753724">
        <ele>1726.6</ele>
        <time>2018-11-03T14:41:17Z</time>
      </trkpt>
      <trkpt lat="42.898641" lon="0.753617">
        <ele>1725.4</ele>
        <time>2018-11-03T14:41:42Z</time>
      </trkpt>
      <trkpt lat="42.898694" lon="0.753505">
        <ele>1723.4</ele>
        <time>2018-11-03T14:41:58Z</time>
      </trkpt>
      <trkpt lat="42.898751" lon="0.753407">
        <ele>1722.1</ele>
        <time>2018-11-03T14:42:09Z</time>
      </trkpt>
      <trkpt lat="42.898834" lon="0.753333">
        <ele>1720.2</ele>
        <time>2018-11-03T14:42:21Z</time>
      </trkpt>
      <trkpt lat="42.898898" lon="0.753237">
        <ele>1717.2</ele>
        <time>2018-11-03T14:42:33Z</time>
      </trkpt>
      <trkpt lat="42.898947" lon="0.753130">
        <ele>1714.7</ele>
        <time>2018-11-03T14:42:44Z</time>
      </trkpt>
      <trkpt lat="42.898996" lon="0.753016">
        <ele>1712.9</ele>
        <time>2018-11-03T14:42:56Z</time>
      </trkpt>
      <trkpt lat="42.899050" lon="0.752905">
        <ele>1711.1</ele>
        <time>2018-11-03T14:43:08Z</time>
      </trkpt>
      <trkpt lat="42.899113" lon="0.752798">
        <ele>1709.2</ele>
        <time>2018-11-03T14:43:20Z</time>
      </trkpt>
      <trkpt lat="42.899192" lon="0.752738">
        <ele>1707.6</ele>
        <time>2018-11-03T14:43:34Z</time>
      </trkpt>
      <trkpt lat="42.899209" lon="0.752622">
        <ele>1704.8</ele>
        <time>2018-11-03T14:44:26Z</time>
      </trkpt>
      <trkpt lat="42.899196" lon="0.752495">
        <ele>1703.6</ele>
        <time>2018-11-03T14:44:37Z</time>
      </trkpt>
      <trkpt lat="42.899247" lon="0.752392">
        <ele>1700.8</ele>
        <time>2018-11-03T14:44:52Z</time>
      </trkpt>
      <trkpt lat="42.899289" lon="0.752270">
        <ele>1698.1</ele>
        <time>2018-11-03T14:45:04Z</time>
      </trkpt>
      <trkpt lat="42.899293" lon="0.752139">
        <ele>1695.2</ele>
        <time>2018-11-03T14:45:16Z</time>
      </trkpt>
      <trkpt lat="42.899268" lon="0.752000">
        <ele>1692.5</ele>
        <time>2018-11-03T14:45:28Z</time>
      </trkpt>
      <trkpt lat="42.899208" lon="0.751894">
        <ele>1690.5</ele>
        <time>2018-11-03T14:45:41Z</time>
      </trkpt>
      <trkpt lat="42.899186" lon="0.751759">
        <ele>1687.2</ele>
        <time>2018-11-03T14:45:55Z</time>
      </trkpt>
      <trkpt lat="42.899177" lon="0.751629">
        <ele>1683.2</ele>
        <time>2018-11-03T14:46:12Z</time>
      </trkpt>
      <trkpt lat="42.899195" lon="0.751501">
        <ele>1678.7</ele>
        <time>2018-11-03T14:46:35Z</time>
      </trkpt>
      <trkpt lat="42.899204" lon="0.751360">
        <ele>1675.3</ele>
        <time>2018-11-03T14:46:52Z</time>
      </trkpt>
      <trkpt lat="42.899232" lon="0.751224">
        <ele>1672.4</ele>
        <time>2018-11-03T14:47:04Z</time>
      </trkpt>
      <trkpt lat="42.899260" lon="0.751099">
        <ele>1669.6</ele>
        <time>2018-11-03T14:47:16Z</time>
      </trkpt>
      <trkpt lat="42.899259" lon="0.750961">
        <ele>1667.0</ele>
        <time>2018-11-03T14:47:28Z</time>
      </trkpt>
      <trkpt lat="42.899262" lon="0.750824">
        <ele>1664.6</ele>
        <time>2018-11-03T14:47:38Z</time>
      </trkpt>
      <trkpt lat="42.899277" lon="0.750693">
        <ele>1662.6</ele>
        <time>2018-11-03T14:47:49Z</time>
      </trkpt>
      <trkpt lat="42.899289" lon="0.750565">
        <ele>1658.9</ele>
        <time>2018-11-03T14:48:05Z</time>
      </trkpt>
      <trkpt lat="42.899298" lon="0.750442">
        <ele>1656.0</ele>
        <time>2018-11-03T14:48:17Z</time>
      </trkpt>
      <trkpt lat="42.899299" lon="0.750319">
        <ele>1652.8</ele>
        <time>2018-11-03T14:48:27Z</time>
      </trkpt>
      <trkpt lat="42.899303" lon="0.750181">
        <ele>1649.7</ele>
        <time>2018-11-03T14:48:39Z</time>
      </trkpt>
      <trkpt lat="42.899288" lon="0.750049">
        <ele>1644.6</ele>
        <time>2018-11-03T14:48:54Z</time>
      </trkpt>
      <trkpt lat="42.899288" lon="0.749908">
        <ele>1640.4</ele>
        <time>2018-11-03T14:49:08Z</time>
      </trkpt>
      <trkpt lat="42.899277" lon="0.749773">
        <ele>1635.9</ele>
        <time>2018-11-03T14:49:23Z</time>
      </trkpt>
      <trkpt lat="42.899269" lon="0.749628">
        <ele>1631.5</ele>
        <time>2018-11-03T14:49:38Z</time>
      </trkpt>
      <trkpt lat="42.899280" lon="0.749499">
        <ele>1627.9</ele>
        <time>2018-11-03T14:49:52Z</time>
      </trkpt>
      <trkpt lat="42.899272" lon="0.749363">
        <ele>1624.7</ele>
        <time>2018-11-03T14:50:11Z</time>
      </trkpt>
      <trkpt lat="42.899270" lon="0.749228">
        <ele>1621.7</ele>
        <time>2018-11-03T14:50:23Z</time>
      </trkpt>
      <trkpt lat="42.899266" lon="0.749101">
        <ele>1618.8</ele>
        <time>2018-11-03T14:50:34Z</time>
      </trkpt>
      <trkpt lat="42.899276" lon="0.748969">
        <ele>1616.6</ele>
        <time>2018-11-03T14:50:44Z</time>
      </trkpt>
      <trkpt lat="42.899287" lon="0.748833">
        <ele>1614.3</ele>
        <time>2018-11-03T14:50:55Z</time>
      </trkpt>
      <trkpt lat="42.899328" lon="0.748713">
        <ele>1612.4</ele>
        <time>2018-11-03T14:51:06Z</time>
      </trkpt>
      <trkpt lat="42.899358" lon="0.748626">
        <ele>1610.8</ele>
        <time>2018-11-03T14:51:40Z</time>
      </trkpt>
      <trkpt lat="42.899382" lon="0.748587">
        <ele>1609.3</ele>
        <time>2018-11-03T14:52:19Z</time>
      </trkpt>
      <trkpt lat="42.899422" lon="0.748449">
        <ele>1608.8</ele>
        <time>2018-11-03T14:52:59Z</time>
      </trkpt>
      <trkpt lat="42.899461" lon="0.748283">
        <ele>1606.3</ele>
        <time>2018-11-03T14:53:15Z</time>
      </trkpt>
      <trkpt lat="42.899494" lon="0.748134">
        <ele>1603.7</ele>
        <time>2018-11-03T14:53:30Z</time>
      </trkpt>
      <trkpt lat="42.899499" lon="0.748083">
        <ele>1603.5</ele>
        <time>2018-11-03T14:54:27Z</time>
      </trkpt>
      <trkpt lat="42.899533" lon="0.748027">
        <ele>1602.7</ele>
        <time>2018-11-03T14:54:58Z</time>
      </trkpt>
      <trkpt lat="42.899609" lon="0.747897">
        <ele>1600.2</ele>
        <time>2018-11-03T14:55:14Z</time>
      </trkpt>
      <trkpt lat="42.899656" lon="0.747708">
        <ele>1598.4</ele>
        <time>2018-11-03T14:55:28Z</time>
      </trkpt>
      <trkpt lat="42.899674" lon="0.747527">
        <ele>1596.9</ele>
        <time>2018-11-03T14:55:42Z</time>
      </trkpt>
      <trkpt lat="42.899720" lon="0.747349">
        <ele>1595.9</ele>
        <time>2018-11-03T14:55:55Z</time>
      </trkpt>
      <trkpt lat="42.899765" lon="0.747226">
        <ele>1596.3</ele>
        <time>2018-11-03T14:56:09Z</time>
      </trkpt>
      <trkpt lat="42.899798" lon="0.747065">
        <ele>1595.7</ele>
        <time>2018-11-03T14:56:19Z</time>
      </trkpt>
      <trkpt lat="42.899859" lon="0.746921">
        <ele>1595.3</ele>
        <time>2018-11-03T14:56:30Z</time>
      </trkpt>
      <trkpt lat="42.899925" lon="0.746756">
        <ele>1595.6</ele>
        <time>2018-11-03T14:56:41Z</time>
      </trkpt>
      <trkpt lat="42.899983" lon="0.746636">
        <ele>1594.8</ele>
        <time>2018-11-03T14:56:52Z</time>
      </trkpt>
      <trkpt lat="42.900038" lon="0.746503">
        <ele>1594.8</ele>
        <time>2018-11-03T14:57:03Z</time>
      </trkpt>
      <trkpt lat="42.900077" lon="0.746352">
        <ele>1594.6</ele>
        <time>2018-11-03T14:57:15Z</time>
      </trkpt>
      <trkpt lat="42.900109" lon="0.746187">
        <ele>1593.6</ele>
        <time>2018-11-03T14:57:27Z</time>
      </trkpt>
      <trkpt lat="42.900134" lon="0.746023">
        <ele>1592.7</ele>
        <time>2018-11-03T14:57:39Z</time>
      </trkpt>
      <trkpt lat="42.900178" lon="0.745878">
        <ele>1590.2</ele>
        <time>2018-11-03T14:57:51Z</time>
      </trkpt>
      <trkpt lat="42.900150" lon="0.745730">
        <ele>1588.0</ele>
        <time>2018-11-03T14:58:03Z</time>
      </trkpt>
      <trkpt lat="42.900153" lon="0.745644">
        <ele>1585.5</ele>
        <time>2018-11-03T14:58:33Z</time>
      </trkpt>
      <trkpt lat="42.900168" lon="0.745507">
        <ele>1582.9</ele>
        <time>2018-11-03T14:58:47Z</time>
      </trkpt>
      <trkpt lat="42.900166" lon="0.745353">
        <ele>1580.3</ele>
        <time>2018-11-03T14:59:00Z</time>
      </trkpt>
      <trkpt lat="42.900134" lon="0.745209">
        <ele>1577.5</ele>
        <time>2018-11-03T14:59:12Z</time>
      </trkpt>
      <trkpt lat="42.900127" lon="0.745058">
        <ele>1574.8</ele>
        <time>2018-11-03T14:59:27Z</time>
      </trkpt>
      <trkpt lat="42.900133" lon="0.744898">
        <ele>1572.1</ele>
        <time>2018-11-03T14:59:39Z</time>
      </trkpt>
      <trkpt lat="42.900138" lon="0.744709">
        <ele>1569.0</ele>
        <time>2018-11-03T14:59:52Z</time>
      </trkpt>
      <trkpt lat="42.900143" lon="0.744550">
        <ele>1567.1</ele>
        <time>2018-11-03T15:00:04Z</time>
      </trkpt>
      <trkpt lat="42.900142" lon="0.744404">
        <ele>1564.7</ele>
        <time>2018-11-03T15:00:18Z</time>
      </trkpt>
      <trkpt lat="42.900132" lon="0.744238">
        <ele>1561.5</ele>
        <time>2018-11-03T15:00:33Z</time>
      </trkpt>
      <trkpt lat="42.900169" lon="0.744090">
        <ele>1558.6</ele>
        <time>2018-11-03T15:00:49Z</time>
      </trkpt>
      <trkpt lat="42.900152" lon="0.743927">
        <ele>1557.1</ele>
        <time>2018-11-03T15:01:05Z</time>
      </trkpt>
      <trkpt lat="42.900146" lon="0.743787">
        <ele>1555.5</ele>
        <time>2018-11-03T15:01:18Z</time>
      </trkpt>
      <trkpt lat="42.900161" lon="0.743647">
        <ele>1554.0</ele>
        <time>2018-11-03T15:01:29Z</time>
      </trkpt>
      <trkpt lat="42.900192" lon="0.743491">
        <ele>1552.4</ele>
        <time>2018-11-03T15:01:42Z</time>
      </trkpt>
      <trkpt lat="42.900198" lon="0.743339">
        <ele>1551.0</ele>
        <time>2018-11-03T15:01:54Z</time>
      </trkpt>
      <trkpt lat="42.900179" lon="0.743169">
        <ele>1549.3</ele>
        <time>2018-11-03T15:02:08Z</time>
      </trkpt>
      <trkpt lat="42.900170" lon="0.742993">
        <ele>1547.7</ele>
        <time>2018-11-03T15:02:21Z</time>
      </trkpt>
      <trkpt lat="42.900170" lon="0.742830">
        <ele>1546.3</ele>
        <time>2018-11-03T15:02:32Z</time>
      </trkpt>
      <trkpt lat="42.900149" lon="0.742669">
        <ele>1545.2</ele>
        <time>2018-11-03T15:02:44Z</time>
      </trkpt>
      <trkpt lat="42.900144" lon="0.742490">
        <ele>1544.0</ele>
        <time>2018-11-03T15:02:56Z</time>
      </trkpt>
      <trkpt lat="42.900143" lon="0.742328">
        <ele>1543.0</ele>
        <time>2018-11-03T15:03:08Z</time>
      </trkpt>
      <trkpt lat="42.900115" lon="0.742161">
        <ele>1540.3</ele>
        <time>2018-11-03T15:03:20Z</time>
      </trkpt>
      <trkpt lat="42.900084" lon="0.742014">
        <ele>1537.5</ele>
        <time>2018-11-03T15:03:32Z</time>
      </trkpt>
      <trkpt lat="42.900036" lon="0.741866">
        <ele>1535.2</ele>
        <time>2018-11-03T15:03:42Z</time>
      </trkpt>
      <trkpt lat="42.899995" lon="0.741732">
        <ele>1534.2</ele>
        <time>2018-11-03T15:03:52Z</time>
      </trkpt>
      <trkpt lat="42.899920" lon="0.741621">
        <ele>1533.3</ele>
        <time>2018-11-03T15:04:03Z</time>
      </trkpt>
      <trkpt lat="42.899834" lon="0.741504">
        <ele>1531.2</ele>
        <time>2018-11-03T15:04:14Z</time>
      </trkpt>
      <trkpt lat="42.899760" lon="0.741397">
        <ele>1529.1</ele>
        <time>2018-11-03T15:04:25Z</time>
      </trkpt>
      <trkpt lat="42.899692" lon="0.741281">
        <ele>1527.8</ele>
        <time>2018-11-03T15:04:34Z</time>
      </trkpt>
      <trkpt lat="42.899626" lon="0.741166">
        <ele>1527.2</ele>
        <time>2018-11-03T15:04:43Z</time>
      </trkpt>
      <trkpt lat="42.899553" lon="0.741039">
        <ele>1526.0</ele>
        <time>2018-11-03T15:04:54Z</time>
      </trkpt>
      <trkpt lat="42.899490" lon="0.740906">
        <ele>1524.1</ele>
        <time>2018-11-03T15:05:06Z</time>
      </trkpt>
      <trkpt lat="42.899397" lon="0.740782">
        <ele>1521.7</ele>
        <time>2018-11-03T15:05:17Z</time>
      </trkpt>
      <trkpt lat="42.899334" lon="0.740659">
        <ele>1519.2</ele>
        <time>2018-11-03T15:05:28Z</time>
      </trkpt>
      <trkpt lat="42.899288" lon="0.740513">
        <ele>1516.9</ele>
        <time>2018-11-03T15:05:40Z</time>
      </trkpt>
      <trkpt lat="42.899260" lon="0.740407">
        <ele>1515.0</ele>
        <time>2018-11-03T15:05:51Z</time>
      </trkpt>
      <trkpt lat="42.899255" lon="0.740245">
        <ele>1512.5</ele>
        <time>2018-11-03T15:06:05Z</time>
      </trkpt>
      <trkpt lat="42.899227" lon="0.740082">
        <ele>1509.6</ele>
        <time>2018-11-03T15:06:18Z</time>
      </trkpt>
      <trkpt lat="42.899247" lon="0.739918">
        <ele>1507.8</ele>
        <time>2018-11-03T15:06:29Z</time>
      </trkpt>
      <trkpt lat="42.899189" lon="0.739738">
        <ele>1505.3</ele>
        <time>2018-11-03T15:06:40Z</time>
      </trkpt>
      <trkpt lat="42.899169" lon="0.739607">
        <ele>1502.5</ele>
        <time>2018-11-03T15:06:51Z</time>
      </trkpt>
      <trkpt lat="42.899164" lon="0.739443">
        <ele>1499.9</ele>
        <time>2018-11-03T15:07:04Z</time>
      </trkpt>
      <trkpt lat="42.899161" lon="0.739282">
        <ele>1497.0</ele>
        <time>2018-11-03T15:07:16Z</time>
      </trkpt>
      <trkpt lat="42.899142" lon="0.739124">
        <ele>1494.3</ele>
        <time>2018-11-03T15:07:28Z</time>
      </trkpt>
      <trkpt lat="42.899140" lon="0.738982">
        <ele>1492.1</ele>
        <time>2018-11-03T15:07:38Z</time>
      </trkpt>
      <trkpt lat="42.899136" lon="0.738834">
        <ele>1489.8</ele>
        <time>2018-11-03T15:07:48Z</time>
      </trkpt>
      <trkpt lat="42.899117" lon="0.738680">
        <ele>1487.1</ele>
        <time>2018-11-03T15:08:00Z</time>
      </trkpt>
      <trkpt lat="42.899066" lon="0.738525">
        <ele>1483.9</ele>
        <time>2018-11-03T15:08:13Z</time>
      </trkpt>
      <trkpt lat="42.899037" lon="0.738395">
        <ele>1481.2</ele>
        <time>2018-11-03T15:08:26Z</time>
      </trkpt>
      <trkpt lat="42.899013" lon="0.738242">
        <ele>1477.1</ele>
        <time>2018-11-03T15:08:40Z</time>
      </trkpt>
      <trkpt lat="42.898995" lon="0.738100">
        <ele>1474.4</ele>
        <time>2018-11-03T15:08:51Z</time>
      </trkpt>
      <trkpt lat="42.899002" lon="0.737939">
        <ele>1472.3</ele>
        <time>2018-11-03T15:09:02Z</time>
      </trkpt>
      <trkpt lat="42.898981" lon="0.737783">
        <ele>1469.9</ele>
        <time>2018-11-03T15:09:14Z</time>
      </trkpt>
      <trkpt lat="42.898970" lon="0.737636">
        <ele>1468.5</ele>
        <time>2018-11-03T15:09:25Z</time>
      </trkpt>
      <trkpt lat="42.898953" lon="0.737491">
        <ele>1467.3</ele>
        <time>2018-11-03T15:09:36Z</time>
      </trkpt>
      <trkpt lat="42.898945" lon="0.737373">
        <ele>1465.6</ele>
        <time>2018-11-03T15:09:52Z</time>
      </trkpt>
      <trkpt lat="42.898881" lon="0.737299">
        <ele>1465.3</ele>
        <time>2018-11-03T15:10:27Z</time>
      </trkpt>
      <trkpt lat="42.898858" lon="0.737130">
        <ele>1463.1</ele>
        <time>2018-11-03T15:10:40Z</time>
      </trkpt>
      <trkpt lat="42.898831" lon="0.736986">
        <ele>1461.1</ele>
        <time>2018-11-03T15:10:50Z</time>
      </trkpt>
      <trkpt lat="42.898830" lon="0.736864">
        <ele>1459.1</ele>
        <time>2018-11-03T15:11:01Z</time>
      </trkpt>
      <trkpt lat="42.898864" lon="0.736725">
        <ele>1457.7</ele>
        <time>2018-11-03T15:11:13Z</time>
      </trkpt>
      <trkpt lat="42.898875" lon="0.736577">
        <ele>1455.3</ele>
        <time>2018-11-03T15:11:24Z</time>
      </trkpt>
      <trkpt lat="42.898889" lon="0.736433">
        <ele>1453.8</ele>
        <time>2018-11-03T15:11:35Z</time>
      </trkpt>
      <trkpt lat="42.898933" lon="0.736296">
        <ele>1451.3</ele>
        <time>2018-11-03T15:11:49Z</time>
      </trkpt>
      <trkpt lat="42.898942" lon="0.736122">
        <ele>1449.2</ele>
        <time>2018-11-03T15:12:01Z</time>
      </trkpt>
      <trkpt lat="42.898946" lon="0.735959">
        <ele>1446.6</ele>
        <time>2018-11-03T15:12:13Z</time>
      </trkpt>
      <trkpt lat="42.898949" lon="0.735809">
        <ele>1444.1</ele>
        <time>2018-11-03T15:12:23Z</time>
      </trkpt>
      <trkpt lat="42.898956" lon="0.735692">
        <ele>1441.4</ele>
        <time>2018-11-03T15:12:35Z</time>
      </trkpt>
      <trkpt lat="42.898946" lon="0.735572">
        <ele>1438.8</ele>
        <time>2018-11-03T15:12:45Z</time>
      </trkpt>
      <trkpt lat="42.898965" lon="0.735445">
        <ele>1437.2</ele>
        <time>2018-11-03T15:12:55Z</time>
      </trkpt>
      <trkpt lat="42.898976" lon="0.735328">
        <ele>1434.8</ele>
        <time>2018-11-03T15:13:05Z</time>
      </trkpt>
      <trkpt lat="42.898996" lon="0.735204">
        <ele>1432.1</ele>
        <time>2018-11-03T15:13:16Z</time>
      </trkpt>
      <trkpt lat="42.899057" lon="0.735063">
        <ele>1429.6</ele>
        <time>2018-11-03T15:13:27Z</time>
      </trkpt>
      <trkpt lat="42.899087" lon="0.734935">
        <ele>1426.6</ele>
        <time>2018-11-03T15:13:37Z</time>
      </trkpt>
      <trkpt lat="42.899103" lon="0.734806">
        <ele>1423.8</ele>
        <time>2018-11-03T15:13:47Z</time>
      </trkpt>
      <trkpt lat="42.899147" lon="0.734672">
        <ele>1420.7</ele>
        <time>2018-11-03T15:13:57Z</time>
      </trkpt>
      <trkpt lat="42.899199" lon="0.734514">
        <ele>1417.6</ele>
        <time>2018-11-03T15:14:08Z</time>
      </trkpt>
      <trkpt lat="42.899248" lon="0.734363">
        <ele>1414.2</ele>
        <time>2018-11-03T15:14:21Z</time>
      </trkpt>
      <trkpt lat="42.899297" lon="0.734208">
        <ele>1410.5</ele>
        <time>2018-11-03T15:14:34Z</time>
      </trkpt>
      <trkpt lat="42.899329" lon="0.734030">
        <ele>1406.9</ele>
        <time>2018-11-03T15:14:47Z</time>
      </trkpt>
      <trkpt lat="42.899406" lon="0.733892">
        <ele>1403.8</ele>
        <time>2018-11-03T15:14:59Z</time>
      </trkpt>
      <trkpt lat="42.899504" lon="0.733814">
        <ele>1401.9</ele>
        <time>2018-11-03T15:15:13Z</time>
      </trkpt>
      <trkpt lat="42.899576" lon="0.733687">
        <ele>1400.0</ele>
        <time>2018-11-03T15:15:25Z</time>
      </trkpt>
      <trkpt lat="42.899624" lon="0.733535">
        <ele>1398.7</ele>
        <time>2018-11-03T15:15:36Z</time>
      </trkpt>
      <trkpt lat="42.899651" lon="0.733397">
        <ele>1397.7</ele>
        <time>2018-11-03T15:15:47Z</time>
      </trkpt>
      <trkpt lat="42.899665" lon="0.733256">
        <ele>1396.4</ele>
        <time>2018-11-03T15:16:00Z</time>
      </trkpt>
      <trkpt lat="42.899675" lon="0.733129">
        <ele>1395.7</ele>
        <time>2018-11-03T15:16:15Z</time>
      </trkpt>
      <trkpt lat="42.899675" lon="0.733058">
        <ele>1395.3</ele>
        <time>2018-11-03T15:16:38Z</time>
      </trkpt>
      <trkpt lat="42.899700" lon="0.732895">
        <ele>1394.7</ele>
        <time>2018-11-03T15:16:58Z</time>
      </trkpt>
      <trkpt lat="42.899739" lon="0.732802">
        <ele>1393.7</ele>
        <time>2018-11-03T15:17:25Z</time>
      </trkpt>
      <trkpt lat="42.899719" lon="0.732745">
        <ele>1392.4</ele>
        <time>2018-11-03T15:17:49Z</time>
      </trkpt>
      <trkpt lat="42.899777" lon="0.732622">
        <ele>1392.1</ele>
        <time>2018-11-03T15:18:06Z</time>
      </trkpt>
      <trkpt lat="42.899829" lon="0.732459">
        <ele>1391.8</ele>
        <time>2018-11-03T15:18:16Z</time>
      </trkpt>
      <trkpt lat="42.899886" lon="0.732354">
        <ele>1391.2</ele>
        <time>2018-11-03T15:18:25Z</time>
      </trkpt>
      <trkpt lat="42.899943" lon="0.732198">
        <ele>1390.2</ele>
        <time>2018-11-03T15:18:36Z</time>
      </trkpt>
      <trkpt lat="42.899958" lon="0.732068">
        <ele>1389.7</ele>
        <time>2018-11-03T15:18:46Z</time>
      </trkpt>
      <trkpt lat="42.899969" lon="0.731922">
        <ele>1389.4</ele>
        <time>2018-11-03T15:18:58Z</time>
      </trkpt>
      <trkpt lat="42.900025" lon="0.731784">
        <ele>1387.2</ele>
        <time>2018-11-03T15:19:09Z</time>
      </trkpt>
      <trkpt lat="42.900071" lon="0.731609">
        <ele>1385.1</ele>
        <time>2018-11-03T15:19:23Z</time>
      </trkpt>
      <trkpt lat="42.900138" lon="0.731535">
        <ele>1384.5</ele>
        <time>2018-11-03T15:19:49Z</time>
      </trkpt>
      <trkpt lat="42.900189" lon="0.731368">
        <ele>1383.6</ele>
        <time>2018-11-03T15:20:00Z</time>
      </trkpt>
      <trkpt lat="42.900250" lon="0.731250">
        <ele>1382.9</ele>
        <time>2018-11-03T15:20:09Z</time>
      </trkpt>
      <trkpt lat="42.900303" lon="0.731113">
        <ele>1383.4</ele>
        <time>2018-11-03T15:20:24Z</time>
      </trkpt>
      <trkpt lat="42.900268" lon="0.730982">
        <ele>1383.1</ele>
        <time>2018-11-03T15:20:35Z</time>
      </trkpt>
      <trkpt lat="42.900275" lon="0.730847">
        <ele>1381.1</ele>
        <time>2018-11-03T15:20:47Z</time>
      </trkpt>
      <trkpt lat="42.900352" lon="0.730699">
        <ele>1378.6</ele>
        <time>2018-11-03T15:21:02Z</time>
      </trkpt>
      <trkpt lat="42.900434" lon="0.730565">
        <ele>1376.8</ele>
        <time>2018-11-03T15:21:13Z</time>
      </trkpt>
      <trkpt lat="42.900447" lon="0.730406">
        <ele>1375.7</ele>
        <time>2018-11-03T15:21:25Z</time>
      </trkpt>
      <trkpt lat="42.900468" lon="0.730233">
        <ele>1374.6</ele>
        <time>2018-11-03T15:21:37Z</time>
      </trkpt>
      <trkpt lat="42.900502" lon="0.730155">
        <ele>1372.5</ele>
        <time>2018-11-03T15:22:01Z</time>
      </trkpt>
      <trkpt lat="42.900573" lon="0.730022">
        <ele>1370.3</ele>
        <time>2018-11-03T15:22:12Z</time>
      </trkpt>
      <trkpt lat="42.900645" lon="0.729921">
        <ele>1367.4</ele>
        <time>2018-11-03T15:22:21Z</time>
      </trkpt>
      <trkpt lat="42.900724" lon="0.729819">
        <ele>1365.2</ele>
        <time>2018-11-03T15:22:31Z</time>
      </trkpt>
      <trkpt lat="42.900753" lon="0.729672">
        <ele>1364.4</ele>
        <time>2018-11-03T15:22:41Z</time>
      </trkpt>
      <trkpt lat="42.900787" lon="0.729549">
        <ele>1363.0</ele>
        <time>2018-11-03T15:22:51Z</time>
      </trkpt>
      <trkpt lat="42.900808" lon="0.729420">
        <ele>1361.3</ele>
        <time>2018-11-03T15:23:01Z</time>
      </trkpt>
      <trkpt lat="42.900790" lon="0.729281">
        <ele>1359.1</ele>
        <time>2018-11-03T15:23:10Z</time>
      </trkpt>
      <trkpt lat="42.900790" lon="0.729104">
        <ele>1356.4</ele>
        <time>2018-11-03T15:23:20Z</time>
      </trkpt>
      <trkpt lat="42.900795" lon="0.728952">
        <ele>1353.9</ele>
        <time>2018-11-03T15:23:31Z</time>
      </trkpt>
      <trkpt lat="42.900832" lon="0.728800">
        <ele>1351.5</ele>
        <time>2018-11-03T15:23:42Z</time>
      </trkpt>
      <trkpt lat="42.900832" lon="0.728716">
        <ele>1350.1</ele>
        <time>2018-11-03T15:23:59Z</time>
      </trkpt>
      <trkpt lat="42.900884" lon="0.728601">
        <ele>1348.7</ele>
        <time>2018-11-03T15:24:10Z</time>
      </trkpt>
      <trkpt lat="42.900913" lon="0.728463">
        <ele>1346.1</ele>
        <time>2018-11-03T15:24:21Z</time>
      </trkpt>
      <trkpt lat="42.900914" lon="0.728302">
        <ele>1343.5</ele>
        <time>2018-11-03T15:24:32Z</time>
      </trkpt>
      <trkpt lat="42.900877" lon="0.728173">
        <ele>1340.5</ele>
        <time>2018-11-03T15:24:43Z</time>
      </trkpt>
      <trkpt lat="42.900834" lon="0.728055">
        <ele>1337.2</ele>
        <time>2018-11-03T15:24:54Z</time>
      </trkpt>
      <trkpt lat="42.900825" lon="0.727895">
        <ele>1333.8</ele>
        <time>2018-11-03T15:25:04Z</time>
      </trkpt>
      <trkpt lat="42.900778" lon="0.727780">
        <ele>1331.1</ele>
        <time>2018-11-03T15:25:17Z</time>
      </trkpt>
      <trkpt lat="42.900719" lon="0.727669">
        <ele>1328.7</ele>
        <time>2018-11-03T15:25:27Z</time>
      </trkpt>
      <trkpt lat="42.900661" lon="0.727507">
        <ele>1326.5</ele>
        <time>2018-11-03T15:25:38Z</time>
      </trkpt>
      <trkpt lat="42.900668" lon="0.727380">
        <ele>1325.2</ele>
        <time>2018-11-03T15:25:49Z</time>
      </trkpt>
      <trkpt lat="42.900668" lon="0.727238">
        <ele>1323.7</ele>
        <time>2018-11-03T15:25:59Z</time>
      </trkpt>
      <trkpt lat="42.900661" lon="0.727110">
        <ele>1321.7</ele>
        <time>2018-11-03T15:26:08Z</time>
      </trkpt>
      <trkpt lat="42.900721" lon="0.726974">
        <ele>1319.4</ele>
        <time>2018-11-03T15:26:18Z</time>
      </trkpt>
      <trkpt lat="42.900779" lon="0.726843">
        <ele>1317.9</ele>
        <time>2018-11-03T15:26:28Z</time>
      </trkpt>
      <trkpt lat="42.900882" lon="0.726809">
        <ele>1316.2</ele>
        <time>2018-11-03T15:26:38Z</time>
      </trkpt>
      <trkpt lat="42.900999" lon="0.726826">
        <ele>1314.2</ele>
        <time>2018-11-03T15:26:51Z</time>
      </trkpt>
      <trkpt lat="42.901138" lon="0.726870">
        <ele>1311.0</ele>
        <time>2018-11-03T15:27:06Z</time>
      </trkpt>
      <trkpt lat="42.901261" lon="0.726858">
        <ele>1307.3</ele>
        <time>2018-11-03T15:27:19Z</time>
      </trkpt>
      <trkpt lat="42.901398" lon="0.726781">
        <ele>1304.5</ele>
        <time>2018-11-03T15:27:29Z</time>
      </trkpt>
      <trkpt lat="42.901453" lon="0.726660">
        <ele>1301.3</ele>
        <time>2018-11-03T15:27:40Z</time>
      </trkpt>
      <trkpt lat="42.901530" lon="0.726539">
        <ele>1297.5</ele>
        <time>2018-11-03T15:27:53Z</time>
      </trkpt>
      <trkpt lat="42.901585" lon="0.726376">
        <ele>1292.9</ele>
        <time>2018-11-03T15:28:06Z</time>
      </trkpt>
      <trkpt lat="42.901666" lon="0.726237">
        <ele>1289.2</ele>
        <time>2018-11-03T15:28:19Z</time>
      </trkpt>
      <trkpt lat="42.901728" lon="0.726077">
        <ele>1284.6</ele>
        <time>2018-11-03T15:28:30Z</time>
      </trkpt>
      <trkpt lat="42.901753" lon="0.725933">
        <ele>1282.4</ele>
        <time>2018-11-03T15:28:38Z</time>
      </trkpt>
      <trkpt lat="42.901782" lon="0.725787">
        <ele>1278.4</ele>
        <time>2018-11-03T15:28:49Z</time>
      </trkpt>
      <trkpt lat="42.901864" lon="0.725607">
        <ele>1275.9</ele>
        <time>2018-11-03T15:29:00Z</time>
      </trkpt>
      <trkpt lat="42.901876" lon="0.725533">
        <ele>1273.7</ele>
        <time>2018-11-03T15:29:18Z</time>
      </trkpt>
      <trkpt lat="42.901848" lon="0.725393">
        <ele>1272.1</ele>
        <time>2018-11-03T15:29:30Z</time>
      </trkpt>
      <trkpt lat="42.901828" lon="0.725230">
        <ele>1267.7</ele>
        <time>2018-11-03T15:29:42Z</time>
      </trkpt>
      <trkpt lat="42.901792" lon="0.725066">
        <ele>1264.3</ele>
        <time>2018-11-03T15:29:51Z</time>
      </trkpt>
      <trkpt lat="42.901814" lon="0.724902">
        <ele>1259.4</ele>
        <time>2018-11-03T15:30:03Z</time>
      </trkpt>
      <trkpt lat="42.901833" lon="0.724796">
        <ele>1255.7</ele>
        <time>2018-11-03T15:30:22Z</time>
      </trkpt>
      <trkpt lat="42.901792" lon="0.724659">
        <ele>1254.4</ele>
        <time>2018-11-03T15:30:32Z</time>
      </trkpt>
      <trkpt lat="42.901733" lon="0.724540">
        <ele>1252.5</ele>
        <time>2018-11-03T15:30:40Z</time>
      </trkpt>
      <trkpt lat="42.901687" lon="0.724422">
        <ele>1250.6</ele>
        <time>2018-11-03T15:30:48Z</time>
      </trkpt>
      <trkpt lat="42.901631" lon="0.724313">
        <ele>1248.7</ele>
        <time>2018-11-03T15:30:57Z</time>
      </trkpt>
      <trkpt lat="42.901611" lon="0.724189">
        <ele>1247.1</ele>
        <time>2018-11-03T15:31:05Z</time>
      </trkpt>
      <trkpt lat="42.901602" lon="0.724060">
        <ele>1245.1</ele>
        <time>2018-11-03T15:31:15Z</time>
      </trkpt>
      <trkpt lat="42.901557" lon="0.723923">
        <ele>1243.5</ele>
        <time>2018-11-03T15:31:24Z</time>
      </trkpt>
      <trkpt lat="42.901490" lon="0.723819">
        <ele>1242.1</ele>
        <time>2018-11-03T15:31:33Z</time>
      </trkpt>
      <trkpt lat="42.901421" lon="0.723684">
        <ele>1240.4</ele>
        <time>2018-11-03T15:31:42Z</time>
      </trkpt>
      <trkpt lat="42.901365" lon="0.723550">
        <ele>1237.8</ele>
        <time>2018-11-03T15:31:50Z</time>
      </trkpt>
      <trkpt lat="42.901330" lon="0.723396">
        <ele>1234.6</ele>
        <time>2018-11-03T15:32:00Z</time>
      </trkpt>
      <trkpt lat="42.901298" lon="0.723265">
        <ele>1232.5</ele>
        <time>2018-11-03T15:32:08Z</time>
      </trkpt>
      <trkpt lat="42.901261" lon="0.723159">
        <ele>1230.1</ele>
        <time>2018-11-03T15:32:21Z</time>
      </trkpt>
      <trkpt lat="42.901219" lon="0.723061">
        <ele>1226.0</ele>
        <time>2018-11-03T15:33:26Z</time>
        <name>Route forestiere</name>
      </trkpt>
      <trkpt lat="42.901113" lon="0.723113">
        <ele>1226.0</ele>
        <time>2018-11-03T15:33:36Z</time>
      </trkpt>
      <trkpt lat="42.901004" lon="0.723186">
        <ele>1225.6</ele>
        <time>2018-11-03T15:33:47Z</time>
      </trkpt>
      <trkpt lat="42.900887" lon="0.723268">
        <ele>1225.7</ele>
        <time>2018-11-03T15:33:59Z</time>
      </trkpt>
      <trkpt lat="42.900771" lon="0.723301">
        <ele>1225.4</ele>
        <time>2018-11-03T15:34:12Z</time>
      </trkpt>
      <trkpt lat="42.900695" lon="0.723320">
        <ele>1225.7</ele>
        <time>2018-11-03T15:34:33Z</time>
      </trkpt>
      <trkpt lat="42.900579" lon="0.723455">
        <ele>1225.7</ele>
        <time>2018-11-03T15:34:48Z</time>
      </trkpt>
      <trkpt lat="42.900471" lon="0.723528">
        <ele>1225.0</ele>
        <time>2018-11-03T15:35:03Z</time>
      </trkpt>
      <trkpt lat="42.900378" lon="0.723584">
        <ele>1224.9</ele>
        <time>2018-11-03T15:35:18Z</time>
      </trkpt>
      <trkpt lat="42.900281" lon="0.723678">
        <ele>1224.6</ele>
        <time>2018-11-03T15:35:32Z</time>
      </trkpt>
      <trkpt lat="42.900202" lon="0.723772">
        <ele>1224.3</ele>
        <time>2018-11-03T15:35:44Z</time>
      </trkpt>
      <trkpt lat="42.900112" lon="0.723841">
        <ele>1224.2</ele>
        <time>2018-11-03T15:35:56Z</time>
      </trkpt>
      <trkpt lat="42.900016" lon="0.723895">
        <ele>1223.9</ele>
        <time>2018-11-03T15:36:10Z</time>
      </trkpt>
      <trkpt lat="42.899906" lon="0.723959">
        <ele>1223.7</ele>
        <time>2018-11-03T15:36:21Z</time>
      </trkpt>
      <trkpt lat="42.899814" lon="0.724085">
        <ele>1223.4</ele>
        <time>2018-11-03T15:36:34Z</time>
      </trkpt>
      <trkpt lat="42.899712" lon="0.724198">
        <ele>1223.4</ele>
        <time>2018-11-03T15:36:49Z</time>
      </trkpt>
      <trkpt lat="42.899647" lon="0.724244">
        <ele>1223.2</ele>
        <time>2018-11-03T15:37:16Z</time>
      </trkpt>
      <trkpt lat="42.899555" lon="0.724375">
        <ele>1223.2</ele>
        <time>2018-11-03T15:37:28Z</time>
      </trkpt>
      <trkpt lat="42.899474" lon="0.724509">
        <ele>1223.1</ele>
        <time>2018-11-03T15:37:41Z</time>
      </trkpt>
      <trkpt lat="42.899390" lon="0.724649">
        <ele>1222.7</ele>
        <time>2018-11-03T15:37:56Z</time>
      </trkpt>
      <trkpt lat="42.899292" lon="0.724749">
        <ele>1222.5</ele>
        <time>2018-11-03T15:38:09Z</time>
      </trkpt>
      <trkpt lat="42.899220" lon="0.724859">
        <ele>1222.5</ele>
        <time>2018-11-03T15:38:20Z</time>
      </trkpt>
      <trkpt lat="42.899145" lon="0.724968">
        <ele>1222.4</ele>
        <time>2018-11-03T15:38:31Z</time>
      </trkpt>
      <trkpt lat="42.899056" lon="0.725068">
        <ele>1222.4</ele>
        <time>2018-11-03T15:38:42Z</time>
      </trkpt>
      <trkpt lat="42.898978" lon="0.725169">
        <ele>1222.6</ele>
        <time>2018-11-03T15:38:53Z</time>
      </trkpt>
      <trkpt lat="42.898893" lon="0.725281">
        <ele>1222.5</ele>
        <time>2018-11-03T15:39:05Z</time>
      </trkpt>
      <trkpt lat="42.898811" lon="0.725412">
        <ele>1222.6</ele>
        <time>2018-11-03T15:39:16Z</time>
      </trkpt>
      <trkpt lat="42.898740" lon="0.725503">
        <ele>1222.5</ele>
        <time>2018-11-03T15:39:27Z</time>
      </trkpt>
      <trkpt lat="42.898727" lon="0.725639">
        <ele>1222.5</ele>
        <time>2018-11-03T15:39:38Z</time>
      </trkpt>
      <trkpt lat="42.898723" lon="0.725792">
        <ele>1222.6</ele>
        <time>2018-11-03T15:39:48Z</time>
      </trkpt>
      <trkpt lat="42.898710" lon="0.725933">
        <ele>1222.3</ele>
        <time>2018-11-03T15:39:58Z</time>
      </trkpt>
      <trkpt lat="42.898707" lon="0.726057">
        <ele>1222.3</ele>
        <time>2018-11-03T15:40:07Z</time>
      </trkpt>
      <trkpt lat="42.898683" lon="0.726187">
        <ele>1222.2</ele>
        <time>2018-11-03T15:40:17Z</time>
      </trkpt>
      <trkpt lat="42.898673" lon="0.726330">
        <ele>1222.6</ele>
        <time>2018-11-03T15:40:28Z</time>
      </trkpt>
      <trkpt lat="42.898606" lon="0.726381">
        <ele>1222.4</ele>
        <time>2018-11-03T15:40:40Z</time>
      </trkpt>
      <trkpt lat="42.898589" lon="0.726247">
        <ele>1221.4</ele>
        <time>2018-11-03T15:40:51Z</time>
      </trkpt>
      <trkpt lat="42.898592" lon="0.726105">
        <ele>1220.4</ele>
        <time>2018-11-03T15:41:01Z</time>
      </trkpt>
      <trkpt lat="42.898604" lon="0.725965">
        <ele>1219.1</ele>
        <time>2018-11-03T15:41:12Z</time>
      </trkpt>
      <trkpt lat="42.898610" lon="0.725835">
        <ele>1218.2</ele>
        <time>2018-11-03T15:41:22Z</time>
      </trkpt>
      <trkpt lat="42.898616" lon="0.725708">
        <ele>1217.2</ele>
        <time>2018-11-03T15:41:32Z</time>
      </trkpt>
      <trkpt lat="42.898616" lon="0.725574">
        <ele>1215.9</ele>
        <time>2018-11-03T15:41:43Z</time>
      </trkpt>
      <trkpt lat="42.898623" lon="0.725456">
        <ele>1215.0</ele>
        <time>2018-11-03T15:41:55Z</time>
      </trkpt>
      <trkpt lat="42.898640" lon="0.725341">
        <ele>1214.4</ele>
        <time>2018-11-03T15:42:03Z</time>
      </trkpt>
      <trkpt lat="42.898665" lon="0.725205">
        <ele>1212.8</ele>
        <time>2018-11-03T15:42:12Z</time>
      </trkpt>
      <trkpt lat="42.898705" lon="0.725101">
        <ele>1211.7</ele>
        <time>2018-11-03T15:42:24Z</time>
      </trkpt>
      <trkpt lat="42.898723" lon="0.724967">
        <ele>1210.6</ele>
        <time>2018-11-03T15:42:33Z</time>
      </trkpt>
      <trkpt lat="42.898740" lon="0.724830">
        <ele>1209.3</ele>
        <time>2018-11-03T15:42:42Z</time>
      </trkpt>
      <trkpt lat="42.898758" lon="0.724693">
        <ele>1208.1</ele>
        <time>2018-11-03T15:42:51Z</time>
      </trkpt>
      <trkpt lat="42.898789" lon="0.724556">
        <ele>1206.4</ele>
        <time>2018-11-03T15:43:01Z</time>
      </trkpt>
      <trkpt lat="42.898807" lon="0.724431">
        <ele>1205.3</ele>
        <time>2018-11-03T15:43:12Z</time>
      </trkpt>
      <trkpt lat="42.898833" lon="0.724281">
        <ele>1203.1</ele>
        <time>2018-11-03T15:43:23Z</time>
      </trkpt>
      <trkpt lat="42.898903" lon="0.724197">
        <ele>1200.7</ele>
        <time>2018-11-03T15:43:36Z</time>
      </trkpt>
      <trkpt lat="42.898968" lon="0.724135">
        <ele>1197.6</ele>
        <time>2018-11-03T15:43:56Z</time>
      </trkpt>
      <trkpt lat="42.899040" lon="0.724003">
        <ele>1195.7</ele>
        <time>2018-11-03T15:44:10Z</time>
      </trkpt>
      <trkpt lat="42.899025" lon="0.723845">
        <ele>1192.6</ele>
        <time>2018-11-03T15:44:20Z</time>
      </trkpt>
      <trkpt lat="42.898989" lon="0.723697">
        <ele>1188.8</ele>
        <time>2018-11-03T15:44:31Z</time>
      </trkpt>
      <trkpt lat="42.898938" lon="0.723565">
        <ele>1186.7</ele>
        <time>2018-11-03T15:44:39Z</time>
      </trkpt>
      <trkpt lat="42.898893" lon="0.723445">
        <ele>1184.4</ele>
        <time>2018-11-03T15:44:56Z</time>
      </trkpt>
      <trkpt lat="42.898889" lon="0.723306">
        <ele>1182.7</ele>
        <time>2018-11-03T15:45:07Z</time>
      </trkpt>
      <trkpt lat="42.898872" lon="0.723200">
        <ele>1181.2</ele>
        <time>2018-11-03T15:45:17Z</time>
      </trkpt>
      <trkpt lat="42.898824" lon="0.723071">
        <ele>1180.3</ele>
        <time>2018-11-03T15:45:30Z</time>
      </trkpt>
      <trkpt lat="42.898745" lon="0.722999">
        <ele>1178.4</ele>
        <time>2018-11-03T15:45:40Z</time>
      </trkpt>
      <trkpt lat="42.898643" lon="0.722976">
        <ele>1176.9</ele>
        <time>2018-11-03T15:45:50Z</time>
      </trkpt>
      <trkpt lat="42.898529" lon="0.723006">
        <ele>1175.4</ele>
        <time>2018-11-03T15:46:00Z</time>
      </trkpt>
      <trkpt lat="42.898494" lon="0.723003">
        <ele>1175.1</ele>
        <time>2018-11-03T15:46:26Z</time>
      </trkpt>
      <trkpt lat="42.898455" lon="0.723054">
        <ele>1174.9</ele>
        <time>2018-11-03T15:47:17Z</time>
      </trkpt>
      <trkpt lat="42.898376" lon="0.723134">
        <ele>1174.2</ele>
        <time>2018-11-03T15:47:27Z</time>
      </trkpt>
      <trkpt lat="42.898308" lon="0.723265">
        <ele>1172.6</ele>
        <time>2018-11-03T15:47:39Z</time>
      </trkpt>
      <trkpt lat="42.898262" lon="0.723410">
        <ele>1171.0</ele>
        <time>2018-11-03T15:47:53Z</time>
      </trkpt>
      <trkpt lat="42.898205" lon="0.723488">
        <ele>1168.8</ele>
        <time>2018-11-03T15:48:42Z</time>
      </trkpt>
      <trkpt lat="42.898210" lon="0.723568">
        <ele>1167.5</ele>
        <time>2018-11-03T15:49:22Z</time>
      </trkpt>
      <trkpt lat="42.898181" lon="0.723703">
        <ele>1166.3</ele>
        <time>2018-11-03T15:49:59Z</time>
      </trkpt>
      <trkpt lat="42.898120" lon="0.723833">
        <ele>1163.1</ele>
        <time>2018-11-03T15:50:19Z</time>
      </trkpt>
      <trkpt lat="42.898070" lon="0.723999">
        <ele>1160.5</ele>
        <time>2018-11-03T15:50:32Z</time>
      </trkpt>
      <trkpt lat="42.898022" lon="0.724138">
        <ele>1156.6</ele>
        <time>2018-11-03T15:51:17Z</time>
      </trkpt>
      <trkpt lat="42.897997" lon="0.724271">
        <ele>1155.8</ele>
        <time>2018-11-03T15:51:37Z</time>
      </trkpt>
      <trkpt lat="42.897952" lon="0.724342">
        <ele>1153.5</ele>
        <time>2018-11-03T15:52:02Z</time>
      </trkpt>
      <trkpt lat="42.897894" lon="0.724469">
        <ele>1150.7</ele>
        <time>2018-11-03T15:52:17Z</time>
      </trkpt>
      <trkpt lat="42.897822" lon="0.724595">
        <ele>1146.0</ele>
        <time>2018-11-03T15:52:32Z</time>
      </trkpt>
      <trkpt lat="42.897773" lon="0.724741">
        <ele>1141.7</ele>
        <time>2018-11-03T15:52:48Z</time>
      </trkpt>
      <trkpt lat="42.897715" lon="0.724905">
        <ele>1137.7</ele>
        <time>2018-11-03T15:53:03Z</time>
      </trkpt>
      <trkpt lat="42.897651" lon="0.725037">
        <ele>1135.1</ele>
        <time>2018-11-03T15:53:15Z</time>
      </trkpt>
      <trkpt lat="42.897609" lon="0.725187">
        <ele>1133.5</ele>
        <time>2018-11-03T15:53:25Z</time>
      </trkpt>
      <trkpt lat="42.897552" lon="0.725316">
        <ele>1131.5</ele>
        <time>2018-11-03T15:53:35Z</time>
      </trkpt>
      <trkpt lat="42.897484" lon="0.725445">
        <ele>1128.9</ele>
        <time>2018-11-03T15:53:48Z</time>
      </trkpt>
      <trkpt lat="42.897456" lon="0.725563">
        <ele>1125.1</ele>
        <time>2018-11-03T15:54:09Z</time>
      </trkpt>
      <trkpt lat="42.897410" lon="0.725689">
        <ele>1123.8</ele>
        <time>2018-11-03T15:54:23Z</time>
      </trkpt>
      <trkpt lat="42.897346" lon="0.725820">
        <ele>1122.0</ele>
        <time>2018-11-03T15:54:35Z</time>
      </trkpt>
      <trkpt lat="42.897293" lon="0.725972">
        <ele>1119.7</ele>
        <time>2018-11-03T15:54:49Z</time>
      </trkpt>
      <trkpt lat="42.897246" lon="0.726117">
        <ele>1117.5</ele>
        <time>2018-11-03T15:55:01Z</time>
      </trkpt>
      <trkpt lat="42.897188" lon="0.726267">
        <ele>1115.0</ele>
        <time>2018-11-03T15:55:14Z</time>
      </trkpt>
      <trkpt lat="42.897140" lon="0.726400">
        <ele>1111.6</ele>
        <time>2018-11-03T15:55:48Z</time>
      </trkpt>
      <trkpt lat="42.897105" lon="0.726464">
        <ele>1110.5</ele>
        <time>2018-11-03T15:56:54Z</time>
      </trkpt>
      <trkpt lat="42.897051" lon="0.726618">
        <ele>1108.7</ele>
        <time>2018-11-03T15:57:13Z</time>
      </trkpt>
      <trkpt lat="42.897003" lon="0.726748">
        <ele>1107.3</ele>
        <time>2018-11-03T15:57:34Z</time>
      </trkpt>
      <trkpt lat="42.896960" lon="0.726859">
        <ele>1105.9</ele>
        <time>2018-11-03T15:58:03Z</time>
      </trkpt>
      <trkpt lat="42.896915" lon="0.726897">
        <ele>1105.6</ele>
        <time>2018-11-03T15:58:30Z</time>
      </trkpt>
      <trkpt lat="42.896800" lon="0.727047">
        <ele>1104.2</ele>
        <time>2018-11-03T15:58:47Z</time>
      </trkpt>
      <trkpt lat="42.896695" lon="0.727186">
        <ele>1102.8</ele>
        <time>2018-11-03T15:59:01Z</time>
      </trkpt>
      <trkpt lat="42.896590" lon="0.727271">
        <ele>1101.8</ele>
        <time>2018-11-03T15:59:13Z</time>
      </trkpt>
      <trkpt lat="42.896498" lon="0.727369">
        <ele>1100.7</ele>
        <time>2018-11-03T15:59:26Z</time>
      </trkpt>
      <trkpt lat="42.896427" lon="0.727450">
        <ele>1099.2</ele>
        <time>2018-11-03T15:59:54Z</time>
      </trkpt>
      <trkpt lat="42.896325" lon="0.727502">
        <ele>1097.9</ele>
        <time>2018-11-03T16:00:06Z</time>
      </trkpt>
      <trkpt lat="42.896223" lon="0.727514">
        <ele>1096.4</ele>
        <time>2018-11-03T16:00:19Z</time>
      </trkpt>
      <trkpt lat="42.896117" lon="0.727595">
        <ele>1094.7</ele>
        <time>2018-11-03T16:00:31Z</time>
      </trkpt>
      <trkpt lat="42.896039" lon="0.727690">
        <ele>1093.5</ele>
        <time>2018-11-03T16:00:43Z</time>
      </trkpt>
      <trkpt lat="42.895962" lon="0.727801">
        <ele>1091.9</ele>
        <time>2018-11-03T16:00:54Z</time>
      </trkpt>
      <trkpt lat="42.895884" lon="0.727946">
        <ele>1090.6</ele>
        <time>2018-11-03T16:01:04Z</time>
      </trkpt>
      <trkpt lat="42.895810" lon="0.728056">
        <ele>1089.4</ele>
        <time>2018-11-03T16:01:14Z</time>
      </trkpt>
      <trkpt lat="42.895721" lon="0.728188">
        <ele>1087.6</ele>
        <time>2018-11-03T16:01:26Z</time>
      </trkpt>
      <trkpt lat="42.895637" lon="0.728315">
        <ele>1086.4</ele>
        <time>2018-11-03T16:01:39Z</time>
      </trkpt>
      <trkpt lat="42.895575" lon="0.728479">
        <ele>1084.9</ele>
        <time>2018-11-03T16:01:54Z</time>
      </trkpt>
      <trkpt lat="42.895542" lon="0.728619">
        <ele>1083.9</ele>
        <time>2018-11-03T16:02:14Z</time>
      </trkpt>
      <trkpt lat="42.895484" lon="0.728756">
        <ele>1082.2</ele>
        <time>2018-11-03T16:02:25Z</time>
      </trkpt>
      <trkpt lat="42.895419" lon="0.728874">
        <ele>1080.7</ele>
        <time>2018-11-03T16:02:36Z</time>
      </trkpt>
      <trkpt lat="42.895346" lon="0.728971">
        <ele>1078.2</ele>
        <time>2018-11-03T16:02:50Z</time>
      </trkpt>
      <trkpt lat="42.895264" lon="0.729028">
        <ele>1075.3</ele>
        <time>2018-11-03T16:03:03Z</time>
      </trkpt>
      <trkpt lat="42.895191" lon="0.729055">
        <ele>1072.4</ele>
        <time>2018-11-03T16:04:19Z</time>
      </trkpt>
      <trkpt lat="42.895089" lon="0.729065">
        <ele>1069.9</ele>
        <time>2018-11-03T16:04:36Z</time>
      </trkpt>
      <trkpt lat="42.894987" lon="0.729125">
        <ele>1067.3</ele>
        <time>2018-11-03T16:04:53Z</time>
      </trkpt>
      <trkpt lat="42.894920" lon="0.729226">
        <ele>1064.4</ele>
        <time>2018-11-03T16:05:17Z</time>
      </trkpt>
      <trkpt lat="42.894820" lon="0.729339">
        <ele>1060.7</ele>
        <time>2018-11-03T16:05:48Z</time>
      </trkpt>
      <trkpt lat="42.894729" lon="0.729398">
        <ele>1059.5</ele>
        <time>2018-11-03T16:06:00Z</time>
      </trkpt>
      <trkpt lat="42.894639" lon="0.729464">
        <ele>1058.0</ele>
        <time>2018-11-03T16:06:12Z</time>
      </trkpt>
      <trkpt lat="42.894521" lon="0.729476">
        <ele>1056.9</ele>
        <time>2018-11-03T16:06:23Z</time>
      </trkpt>
      <trkpt lat="42.894438" lon="0.729386">
        <ele>1054.9</ele>
        <time>2018-11-03T16:06:36Z</time>
      </trkpt>
      <trkpt lat="42.894355" lon="0.729301">
        <ele>1052.8</ele>
        <time>2018-11-03T16:06:47Z</time>
      </trkpt>
      <trkpt lat="42.894260" lon="0.729316">
        <ele>1050.9</ele>
        <time>2018-11-03T16:06:57Z</time>
      </trkpt>
      <trkpt lat="42.894171" lon="0.729369">
        <ele>1049.1</ele>
        <time>2018-11-03T16:07:08Z</time>
      </trkpt>
      <trkpt lat="42.894080" lon="0.729457">
        <ele>1046.5</ele>
        <time>2018-11-03T16:07:21Z</time>
      </trkpt>
      <trkpt lat="42.894000" lon="0.729537">
        <ele>1044.8</ele>
        <time>2018-11-03T16:07:32Z</time>
      </trkpt>
      <trkpt lat="42.893911" lon="0.729631">
        <ele>1041.7</ele>
        <time>2018-11-03T16:07:45Z</time>
      </trkpt>
      <trkpt lat="42.893828" lon="0.729712">
        <ele>1039.0</ele>
        <time>2018-11-03T16:07:57Z</time>
      </trkpt>
      <trkpt lat="42.893757" lon="0.729805">
        <ele>1036.5</ele>
        <time>2018-11-03T16:08:08Z</time>
      </trkpt>
      <trkpt lat="42.893690" lon="0.729897">
        <ele>1034.6</ele>
        <time>2018-11-03T16:08:17Z</time>
      </trkpt>
      <trkpt lat="42.893606" lon="0.729998">
        <ele>1033.4</ele>
        <time>2018-11-03T16:08:27Z</time>
      </trkpt>
      <trkpt lat="42.893529" lon="0.730099">
        <ele>1031.3</ele>
        <time>2018-11-03T16:08:39Z</time>
      </trkpt>
      <trkpt lat="42.893449" lon="0.730250">
        <ele>1029.3</ele>
        <time>2018-11-03T16:08:52Z</time>
      </trkpt>
      <trkpt lat="42.893347" lon="0.730294">
        <ele>1027.1</ele>
        <time>2018-11-03T16:09:04Z</time>
      </trkpt>
      <trkpt lat="42.893254" lon="0.730333">
        <ele>1024.8</ele>
        <time>2018-11-03T16:09:16Z</time>
      </trkpt>
      <trkpt lat="42.893152" lon="0.730363">
        <ele>1022.8</ele>
        <time>2018-11-03T16:09:27Z</time>
      </trkpt>
      <trkpt lat="42.893065" lon="0.730424">
        <ele>1020.2</ele>
        <time>2018-11-03T16:09:41Z</time>
      </trkpt>
      <trkpt lat="42.892967" lon="0.730469">
        <ele>1018.4</ele>
        <time>2018-11-03T16:09:51Z</time>
      </trkpt>
      <trkpt lat="42.892862" lon="0.730494">
        <ele>1016.0</ele>
        <time>2018-11-03T16:10:02Z</time>
      </trkpt>
      <trkpt lat="42.892775" lon="0.730541">
        <ele>1013.9</ele>
        <time>2018-11-03T16:10:12Z</time>
      </trkpt>
      <trkpt lat="42.892681" lon="0.730571">
        <ele>1011.3</ele>
        <time>2018-11-03T16:10:23Z</time>
      </trkpt>
      <trkpt lat="42.892594" lon="0.730608">
        <ele>1009.1</ele>
        <time>2018-11-03T16:10:33Z</time>
      </trkpt>
      <trkpt lat="42.892510" lon="0.730682">
        <ele>1005.1</ele>
        <time>2018-11-03T16:10:47Z</time>
      </trkpt>
      <trkpt lat="42.892415" lon="0.730719">
        <ele>1002.3</ele>
        <time>2018-11-03T16:10:59Z</time>
      </trkpt>
      <trkpt lat="42.892327" lon="0.730736">
        <ele>998.7</ele>
        <time>2018-11-03T16:11:12Z</time>
      </trkpt>
      <trkpt lat="42.892223" lon="0.730768">
        <ele>996.1</ele>
        <time>2018-11-03T16:11:24Z</time>
      </trkpt>
      <trkpt lat="42.892125" lon="0.730768">
        <ele>992.9</ele>
        <time>2018-11-03T16:11:38Z</time>
      </trkpt>
      <trkpt lat="42.892026" lon="0.730775">
        <ele>989.3</ele>
        <time>2018-11-03T16:11:58Z</time>
      </trkpt>
      <trkpt lat="42.891896" lon="0.730814">
        <ele>986.2</ele>
        <time>2018-11-03T16:12:19Z</time>
      </trkpt>
      <trkpt lat="42.891809" lon="0.730828">
        <ele>983.6</ele>
        <time>2018-11-03T16:12:36Z</time>
      </trkpt>
      <trkpt lat="42.891720" lon="0.730902">
        <ele>981.6</ele>
        <time>2018-11-03T16:12:49Z</time>
      </trkpt>
      <trkpt lat="42.891640" lon="0.730973">
        <ele>979.3</ele>
        <time>2018-11-03T16:13:03Z</time>
      </trkpt>
      <trkpt lat="42.891550" lon="0.731025">
        <ele>976.7</ele>
        <time>2018-11-03T16:13:19Z</time>
      </trkpt>
      <trkpt lat="42.891447" lon="0.731051">
        <ele>974.0</ele>
        <time>2018-11-03T16:13:32Z</time>
      </trkpt>
      <trkpt lat="42.891342" lon="0.731089">
        <ele>970.7</ele>
        <time>2018-11-03T16:13:50Z</time>
      </trkpt>
      <trkpt lat="42.891238" lon="0.731068">
        <ele>967.7</ele>
        <time>2018-11-03T16:14:05Z</time>
      </trkpt>
      <trkpt lat="42.891229" lon="0.731010">
        <ele>966.0</ele>
        <time>2018-11-03T16:14:47Z</time>
      </trkpt>
      <trkpt lat="42.891240" lon="0.730901">
        <ele>964.2</ele>
        <time>2018-11-03T16:15:09Z</time>
      </trkpt>
      <trkpt lat="42.891332" lon="0.730762">
        <ele>962.2</ele>
        <time>2018-11-03T16:15:25Z</time>
      </trkpt>
      <trkpt lat="42.891380" lon="0.730651">
        <ele>960.5</ele>
        <time>2018-11-03T16:15:36Z</time>
      </trkpt>
      <trkpt lat="42.891466" lon="0.730562">
        <ele>958.7</ele>
        <time>2018-11-03T16:15:46Z</time>
      </trkpt>
      <trkpt lat="42.891556" lon="0.730486">
        <ele>956.8</ele>
        <time>2018-11-03T16:15:59Z</time>
      </trkpt>
      <trkpt lat="42.891634" lon="0.730380">
        <ele>954.4</ele>
        <time>2018-11-03T16:16:15Z</time>
      </trkpt>
      <trkpt lat="42.891720" lon="0.730238">
        <ele>951.6</ele>
        <time>2018-11-03T16:16:30Z</time>
      </trkpt>
      <trkpt lat="42.891782" lon="0.730107">
        <ele>950.1</ele>
        <time>2018-11-03T16:16:44Z</time>
      </trkpt>
      <trkpt lat="42.891812" lon="0.729999">
        <ele>948.3</ele>
        <time>2018-11-03T16:17:10Z</time>
      </trkpt>
      <trkpt lat="42.891860" lon="0.729835">
        <ele>946.3</ele>
        <time>2018-11-03T16:17:25Z</time>
      </trkpt>
      <trkpt lat="42.891944" lon="0.729739">
        <ele>944.6</ele>
        <time>2018-11-03T16:17:36Z</time>
      </trkpt>
      <trkpt lat="42.892011" lon="0.729643">
        <ele>943.3</ele>
        <time>2018-11-03T16:17:47Z</time>
      </trkpt>
      <trkpt lat="42.892083" lon="0.729532">
        <ele>942.4</ele>
        <time>2018-11-03T16:17:59Z</time>
      </trkpt>
      <trkpt lat="42.891973" lon="0.729508">
        <ele>939.9</ele>
        <time>2018-11-03T16:18:12Z</time>
      </trkpt>
      <trkpt lat="42.891865" lon="0.729513">
        <ele>938.0</ele>
        <time>2018-11-03T16:18:23Z</time>
      </trkpt>
      <trkpt lat="42.891764" lon="0.729558">
        <ele>935.1</ele>
        <time>2018-11-03T16:18:36Z</time>
      </trkpt>
      <trkpt lat="42.891667" lon="0.729616">
        <ele>932.5</ele>
        <time>2018-11-03T16:18:49Z</time>
      </trkpt>
      <trkpt lat="42.891564" lon="0.729592">
        <ele>930.1</ele>
        <time>2018-11-03T16:19:01Z</time>
      </trkpt>
      <trkpt lat="42.891461" lon="0.729607">
        <ele>927.9</ele>
        <time>2018-11-03T16:19:14Z</time>
      </trkpt>
      <trkpt lat="42.891367" lon="0.729666">
        <ele>925.8</ele>
        <time>2018-11-03T16:19:26Z</time>
      </trkpt>
      <trkpt lat="42.891267" lon="0.729687">
        <ele>925.3</ele>
        <time>2018-11-03T16:19:40Z</time>
      </trkpt>
      <trkpt lat="42.891163" lon="0.729656">
        <ele>924.3</ele>
        <time>2018-11-03T16:19:53Z</time>
      </trkpt>
      <trkpt lat="42.891112" lon="0.729559">
        <ele>922.8</ele>
        <time>2018-11-03T16:20:04Z</time>
      </trkpt>
      <trkpt lat="42.891045" lon="0.729462">
        <ele>921.0</ele>
        <time>2018-11-03T16:20:15Z</time>
      </trkpt>
      <trkpt lat="42.891001" lon="0.729364">
        <ele>919.5</ele>
        <time>2018-11-03T16:20:27Z</time>
      </trkpt>
      <trkpt lat="42.890987" lon="0.729248">
        <ele>918.2</ele>
        <time>2018-11-03T16:20:40Z</time>
      </trkpt>
      <trkpt lat="42.890959" lon="0.729141">
        <ele>917.4</ele>
        <time>2018-11-03T16:20:53Z</time>
      </trkpt>
      <trkpt lat="42.890934" lon="0.729109">
        <ele>915.7</ele>
        <time>2018-11-03T16:23:11Z</time>
      </trkpt>
      <trkpt lat="42.890931" lon="0.729103">
        <ele>914.7</ele>
        <time>2018-11-03T16:23:27Z</time>
      </trkpt>
    </trkseg>
  </trk>
</gpx>

